<?xml version="1.0" encoding="utf-8" standalone="yes"?>
<gpx version="1.1" creator="GPS Visualizer http://www.gpsvisualizer.com/" xmlns="http://www.topografix.com/GPX/1/1" xmlns:xsi="http://www.w3.org/2001/XMLSchema-instance" xsi:schemaLocation="http://www.topografix.com/GPX/1/1 http://www.topografix.com/GPX/1/1/gpx.xsd">
<wpt lat="43.375316598" lon="12.513667122">
  <ele>403.6</ele>
  <time>2012-09-05T22:14:27Z</time>
  <name>Fonte</name>
  <desc>24-AGO-12 10:50:56</desc>
  <sym>Drinking Water</sym>
</wpt>
<wpt lat="43.442050964" lon="12.436033264">
  <ele>546.0</ele>
  <time>2012-09-05T22:14:27Z</time>
  <name>Fonte1</name>
  <desc>24-AGO-12 5:57:40</desc>
  <sym>Drinking Water</sym>
</wpt>
<wpt lat="43.381149312" lon="12.498682961">
  <ele>423.1</ele>
  <time>2012-09-05T22:14:27Z</time>
  <name>Fonte2</name>
  <desc>24-AGO-12 10:15:06</desc>
  <sym>Drinking Water</sym>
</wpt>
<trk>
  <name>Pietralunga - Gubbio</name>
  <trkseg>
    <trkpt lat="43.442050964" lon="12.435950283">
      <ele>545.86</ele>
      <time>1969-12-31T23:00:01Z</time>
    </trkpt>
    <trkpt lat="43.442081474" lon="12.436240213">
      <ele>547.31</ele>
      <time>1969-12-31T23:00:02Z</time>
    </trkpt>
    <trkpt lat="43.441970833" lon="12.436280278">
      <ele>543.03</ele>
      <time>1969-12-31T23:00:03Z</time>
    </trkpt>
    <trkpt lat="43.442108128" lon="12.437049905">
      <ele>542.49</ele>
      <time>1969-12-31T23:00:04Z</time>
    </trkpt>
    <trkpt lat="43.442260763" lon="12.437930088">
      <ele>545.59</ele>
      <time>1969-12-31T23:00:05Z</time>
    </trkpt>
    <trkpt lat="43.442371404" lon="12.438309705">
      <ele>548.16</ele>
      <time>1969-12-31T23:00:06Z</time>
    </trkpt>
    <trkpt lat="43.442428568" lon="12.438659649">
      <ele>546.08</ele>
      <time>1969-12-31T23:00:07Z</time>
    </trkpt>
    <trkpt lat="43.442798629" lon="12.44052982">
      <ele>545.88</ele>
      <time>1969-12-31T23:00:08Z</time>
    </trkpt>
    <trkpt lat="43.44295118" lon="12.441390054">
      <ele>546.03</ele>
      <time>1969-12-31T23:00:09Z</time>
    </trkpt>
    <trkpt lat="43.442901643" lon="12.442099582">
      <ele>539.1</ele>
      <time>1969-12-31T23:00:10Z</time>
    </trkpt>
    <trkpt lat="43.442901643" lon="12.442429578">
      <ele>536.78</ele>
      <time>1969-12-31T23:00:11Z</time>
    </trkpt>
    <trkpt lat="43.443279248" lon="12.443429958">
      <ele>539.22</ele>
      <time>1969-12-31T23:00:12Z</time>
    </trkpt>
    <trkpt lat="43.443458537" lon="12.444419861">
      <ele>540.96</ele>
      <time>1969-12-31T23:00:13Z</time>
    </trkpt>
    <trkpt lat="43.443458537" lon="12.444709791">
      <ele>543.16</ele>
      <time>1969-12-31T23:00:14Z</time>
    </trkpt>
    <trkpt lat="43.443401372" lon="12.444899557">
      <ele>543.26</ele>
      <time>1969-12-31T23:00:15Z</time>
    </trkpt>
    <trkpt lat="43.443279248" lon="12.445039786">
      <ele>541.27</ele>
      <time>1969-12-31T23:00:16Z</time>
    </trkpt>
    <trkpt lat="43.44289016" lon="12.445210442">
      <ele>532.16</ele>
      <time>1969-12-31T23:00:17Z</time>
    </trkpt>
    <trkpt lat="43.442810029" lon="12.445440274">
      <ele>530.6</ele>
      <time>1969-12-31T23:00:18Z</time>
    </trkpt>
    <trkpt lat="43.442810029" lon="12.447279934">
      <ele>528.68</ele>
      <time>1969-12-31T23:00:19Z</time>
    </trkpt>
    <trkpt lat="43.442821512" lon="12.447680505">
      <ele>528.14</ele>
      <time>1969-12-31T23:00:20Z</time>
    </trkpt>
    <trkpt lat="43.442901643" lon="12.448430099">
      <ele>527.37</ele>
      <time>1969-12-31T23:00:21Z</time>
    </trkpt>
    <trkpt lat="43.44282914" lon="12.44876001">
      <ele>525.57</ele>
      <time>1969-12-31T23:00:22Z</time>
    </trkpt>
    <trkpt lat="43.442760492" lon="12.448880207">
      <ele>524.99</ele>
      <time>1969-12-31T23:00:23Z</time>
    </trkpt>
    <trkpt lat="43.443069449" lon="12.450340251">
      <ele>527.54</ele>
      <time>1969-12-31T23:00:24Z</time>
    </trkpt>
    <trkpt lat="43.443641681" lon="12.453339547">
      <ele>542.54</ele>
      <time>1969-12-31T23:00:25Z</time>
    </trkpt>
    <trkpt lat="43.444019286" lon="12.454170194">
      <ele>539.96</ele>
      <time>1969-12-31T23:00:26Z</time>
    </trkpt>
    <trkpt lat="43.444320699" lon="12.454810152">
      <ele>543.56</ele>
      <time>1969-12-31T23:00:27Z</time>
    </trkpt>
    <trkpt lat="43.445091248" lon="12.456430458">
      <ele>548.35</ele>
      <time>1969-12-31T23:00:28Z</time>
    </trkpt>
    <trkpt lat="43.445358295" lon="12.456890121">
      <ele>547.08</ele>
      <time>1969-12-31T23:00:29Z</time>
    </trkpt>
    <trkpt lat="43.444549525" lon="12.457469981">
      <ele>565.27</ele>
      <time>1969-12-31T23:00:30Z</time>
    </trkpt>
    <trkpt lat="43.444419857" lon="12.45742036">
      <ele>567.84</ele>
      <time>1969-12-31T23:00:31Z</time>
    </trkpt>
    <trkpt lat="43.443878135" lon="12.457309719">
      <ele>580.79</ele>
      <time>1969-12-31T23:00:32Z</time>
    </trkpt>
    <trkpt lat="43.443458537" lon="12.457480459">
      <ele>599.9</ele>
      <time>1969-12-31T23:00:33Z</time>
    </trkpt>
    <trkpt lat="43.443481419" lon="12.456899676">
      <ele>591.75</ele>
      <time>1969-12-31T23:00:34Z</time>
    </trkpt>
    <trkpt lat="43.443359379" lon="12.456549648">
      <ele>593.3</ele>
      <time>1969-12-31T23:00:35Z</time>
    </trkpt>
    <trkpt lat="43.4432106" lon="12.456439929">
      <ele>597.98</ele>
      <time>1969-12-31T23:00:36Z</time>
    </trkpt>
    <trkpt lat="43.443031311" lon="12.456469517">
      <ele>604.3</ele>
      <time>1969-12-31T23:00:37Z</time>
    </trkpt>
    <trkpt lat="43.44284825" lon="12.456410425">
      <ele>609.65</ele>
      <time>1969-12-31T23:00:38Z</time>
    </trkpt>
    <trkpt lat="43.442611713" lon="12.456080429">
      <ele>612.62</ele>
      <time>1969-12-31T23:00:39Z</time>
    </trkpt>
    <trkpt lat="43.442451451" lon="12.45555019">
      <ele>604.83</ele>
      <time>1969-12-31T23:00:40Z</time>
    </trkpt>
    <trkpt lat="43.442241652" lon="12.455479614">
      <ele>604.47</ele>
      <time>1969-12-31T23:00:41Z</time>
    </trkpt>
    <trkpt lat="43.441959349" lon="12.455630321">
      <ele>608.52</ele>
      <time>1969-12-31T23:00:42Z</time>
    </trkpt>
    <trkpt lat="43.441761034" lon="12.456170116">
      <ele>618.5</ele>
      <time>1969-12-31T23:00:43Z</time>
    </trkpt>
    <trkpt lat="43.441600772" lon="12.456390392">
      <ele>621.61</ele>
      <time>1969-12-31T23:00:44Z</time>
    </trkpt>
    <trkpt lat="43.44136809" lon="12.45641998">
      <ele>620.79</ele>
      <time>1969-12-31T23:00:45Z</time>
    </trkpt>
    <trkpt lat="43.441261305" lon="12.456370359">
      <ele>619.34</ele>
      <time>1969-12-31T23:00:46Z</time>
    </trkpt>
    <trkpt lat="43.440578431" lon="12.455599811">
      <ele>608.25</ele>
      <time>1969-12-31T23:00:47Z</time>
    </trkpt>
    <trkpt lat="43.440399142" lon="12.455659909">
      <ele>608.62</ele>
      <time>1969-12-31T23:00:48Z</time>
    </trkpt>
    <trkpt lat="43.440189343" lon="12.455570223">
      <ele>607.78</ele>
      <time>1969-12-31T23:00:49Z</time>
    </trkpt>
    <trkpt lat="43.439750634" lon="12.455610288">
      <ele>607.63</ele>
      <time>1969-12-31T23:00:50Z</time>
    </trkpt>
    <trkpt lat="43.438449847" lon="12.456560126">
      <ele>631.83</ele>
      <time>1969-12-31T23:00:51Z</time>
    </trkpt>
    <trkpt lat="43.437919607" lon="12.456549648">
      <ele>641.39</ele>
      <time>1969-12-31T23:00:52Z</time>
    </trkpt>
    <trkpt lat="43.437221562" lon="12.456749892">
      <ele>657.48</ele>
      <time>1969-12-31T23:00:53Z</time>
    </trkpt>
    <trkpt lat="43.437168086" lon="12.456819545">
      <ele>658.85</ele>
      <time>1969-12-31T23:00:54Z</time>
    </trkpt>
    <trkpt lat="43.436698951" lon="12.456979724">
      <ele>663.95</ele>
      <time>1969-12-31T23:00:55Z</time>
    </trkpt>
    <trkpt lat="43.436340289" lon="12.456839578">
      <ele>663.86</ele>
      <time>1969-12-31T23:00:56Z</time>
    </trkpt>
    <trkpt lat="43.436309779" lon="12.456589714">
      <ele>665.68</ele>
      <time>1969-12-31T23:00:57Z</time>
    </trkpt>
    <trkpt lat="43.436351772" lon="12.45645049">
      <ele>666.29</ele>
      <time>1969-12-31T23:00:58Z</time>
    </trkpt>
    <trkpt lat="43.436229732" lon="12.456359882">
      <ele>668.7</ele>
      <time>1969-12-31T23:00:59Z</time>
    </trkpt>
    <trkpt lat="43.436149601" lon="12.456609746">
      <ele>666.49</ele>
      <time>1969-12-31T23:01:00Z</time>
    </trkpt>
    <trkpt lat="43.436210621" lon="12.457320197">
      <ele>659.58</ele>
      <time>1969-12-31T23:01:01Z</time>
    </trkpt>
    <trkpt lat="43.435970312" lon="12.457750356">
      <ele>652.57</ele>
      <time>1969-12-31T23:01:02Z</time>
    </trkpt>
    <trkpt lat="43.435890181" lon="12.457750356">
      <ele>650.52</ele>
      <time>1969-12-31T23:01:03Z</time>
    </trkpt>
    <trkpt lat="43.435909292" lon="12.458140366">
      <ele>654.97</ele>
      <time>1969-12-31T23:01:04Z</time>
    </trkpt>
    <trkpt lat="43.435791023" lon="12.458370198">
      <ele>654.48</ele>
      <time>1969-12-31T23:01:05Z</time>
    </trkpt>
    <trkpt lat="43.435409563" lon="12.458820306">
      <ele>651.38</ele>
      <time>1969-12-31T23:01:06Z</time>
    </trkpt>
    <trkpt lat="43.43518828" lon="12.458869927">
      <ele>647.4</ele>
      <time>1969-12-31T23:01:07Z</time>
    </trkpt>
    <trkpt lat="43.434791565" lon="12.459690096">
      <ele>653.49</ele>
      <time>1969-12-31T23:01:08Z</time>
    </trkpt>
    <trkpt lat="43.434310947" lon="12.460200302">
      <ele>653.16</ele>
      <time>1969-12-31T23:01:09Z</time>
    </trkpt>
    <trkpt lat="43.433738714" lon="12.460350003">
      <ele>651.37</ele>
      <time>1969-12-31T23:01:10Z</time>
    </trkpt>
    <trkpt lat="43.432991048" lon="12.460260401">
      <ele>642.34</ele>
      <time>1969-12-31T23:01:11Z</time>
    </trkpt>
    <trkpt lat="43.431980107" lon="12.460510265">
      <ele>627.44</ele>
      <time>1969-12-31T23:01:12Z</time>
    </trkpt>
    <trkpt lat="43.43161013" lon="12.460749652">
      <ele>623.12</ele>
      <time>1969-12-31T23:01:13Z</time>
    </trkpt>
    <trkpt lat="43.43138122" lon="12.460789718">
      <ele>619.43</ele>
      <time>1969-12-31T23:01:14Z</time>
    </trkpt>
    <trkpt lat="43.431159938" lon="12.46090983">
      <ele>616.0</ele>
      <time>1969-12-31T23:01:15Z</time>
    </trkpt>
    <trkpt lat="43.430980649" lon="12.461279891">
      <ele>613.55</ele>
      <time>1969-12-31T23:01:16Z</time>
    </trkpt>
    <trkpt lat="43.43048092" lon="12.46173">
      <ele>593.12</ele>
      <time>1969-12-31T23:01:17Z</time>
    </trkpt>
    <trkpt lat="43.43043901" lon="12.461999897">
      <ele>588.67</ele>
      <time>1969-12-31T23:01:18Z</time>
    </trkpt>
    <trkpt lat="43.430591561" lon="12.46230986">
      <ele>589.76</ele>
      <time>1969-12-31T23:01:19Z</time>
    </trkpt>
    <trkpt lat="43.431011159" lon="12.462809589">
      <ele>597.88</ele>
      <time>1969-12-31T23:01:20Z</time>
    </trkpt>
    <trkpt lat="43.4311218" lon="12.463060375">
      <ele>598.83</ele>
      <time>1969-12-31T23:01:21Z</time>
    </trkpt>
    <trkpt lat="43.431190532" lon="12.463689772">
      <ele>600.1</ele>
      <time>1969-12-31T23:01:22Z</time>
    </trkpt>
    <trkpt lat="43.4311218" lon="12.463839557">
      <ele>599.24</ele>
      <time>1969-12-31T23:01:23Z</time>
    </trkpt>
    <trkpt lat="43.430538168" lon="12.464010213">
      <ele>589.06</ele>
      <time>1969-12-31T23:01:24Z</time>
    </trkpt>
    <trkpt lat="43.429939281" lon="12.464559563">
      <ele>582.31</ele>
      <time>1969-12-31T23:01:25Z</time>
    </trkpt>
    <trkpt lat="43.429191615" lon="12.464779839">
      <ele>566.22</ele>
      <time>1969-12-31T23:01:26Z</time>
    </trkpt>
    <trkpt lat="43.428760534" lon="12.463629758">
      <ele>562.42</ele>
      <time>1969-12-31T23:01:27Z</time>
    </trkpt>
    <trkpt lat="43.428489715" lon="12.463259697">
      <ele>561.31</ele>
      <time>1969-12-31T23:01:28Z</time>
    </trkpt>
    <trkpt lat="43.428230295" lon="12.463170011">
      <ele>559.92</ele>
      <time>1969-12-31T23:01:29Z</time>
    </trkpt>
    <trkpt lat="43.427478774" lon="12.463170011">
      <ele>549.22</ele>
      <time>1969-12-31T23:01:30Z</time>
    </trkpt>
    <trkpt lat="43.427391015" lon="12.463230109">
      <ele>547.01</ele>
      <time>1969-12-31T23:01:31Z</time>
    </trkpt>
    <trkpt lat="43.427349105" lon="12.463399926">
      <ele>544.61</ele>
      <time>1969-12-31T23:01:32Z</time>
    </trkpt>
    <trkpt lat="43.427379616" lon="12.463749871">
      <ele>541.83</ele>
      <time>1969-12-31T23:01:33Z</time>
    </trkpt>
    <trkpt lat="43.427890744" lon="12.464750251">
      <ele>543.03</ele>
      <time>1969-12-31T23:01:34Z</time>
    </trkpt>
    <trkpt lat="43.427921338" lon="12.46524998">
      <ele>541.24</ele>
      <time>1969-12-31T23:01:35Z</time>
    </trkpt>
    <trkpt lat="43.427181216" lon="12.466050116">
      <ele>523.69</ele>
      <time>1969-12-31T23:01:36Z</time>
    </trkpt>
    <trkpt lat="43.427040065" lon="12.466500308">
      <ele>515.71</ele>
      <time>1969-12-31T23:01:37Z</time>
    </trkpt>
    <trkpt lat="43.427169817" lon="12.467269935">
      <ele>511.93</ele>
      <time>1969-12-31T23:01:38Z</time>
    </trkpt>
    <trkpt lat="43.427398643" lon="12.467940319">
      <ele>512.48</ele>
      <time>1969-12-31T23:01:39Z</time>
    </trkpt>
    <trkpt lat="43.427501656" lon="12.468529735">
      <ele>513.16</ele>
      <time>1969-12-31T23:01:40Z</time>
    </trkpt>
    <trkpt lat="43.427570304" lon="12.469389886">
      <ele>511.82</ele>
      <time>1969-12-31T23:01:41Z</time>
    </trkpt>
    <trkpt lat="43.427860234" lon="12.471099878">
      <ele>510.65</ele>
      <time>1969-12-31T23:01:42Z</time>
    </trkpt>
    <trkpt lat="43.427909855" lon="12.471850393">
      <ele>515.56</ele>
      <time>1969-12-31T23:01:43Z</time>
    </trkpt>
    <trkpt lat="43.428169275" lon="12.471969584">
      <ele>513.96</ele>
      <time>1969-12-31T23:01:44Z</time>
    </trkpt>
    <trkpt lat="43.428398101" lon="12.472160356">
      <ele>513.33</ele>
      <time>1969-12-31T23:01:45Z</time>
    </trkpt>
    <trkpt lat="43.428611755" lon="12.472430253">
      <ele>515.93</ele>
      <time>1969-12-31T23:01:46Z</time>
    </trkpt>
    <trkpt lat="43.428798672" lon="12.474109652">
      <ele>527.88</ele>
      <time>1969-12-31T23:01:47Z</time>
    </trkpt>
    <trkpt lat="43.428939823" lon="12.474430092">
      <ele>528.96</ele>
      <time>1969-12-31T23:01:48Z</time>
    </trkpt>
    <trkpt lat="43.429000843" lon="12.475290326">
      <ele>534.13</ele>
      <time>1969-12-31T23:01:49Z</time>
    </trkpt>
    <trkpt lat="43.429069491" lon="12.475609761">
      <ele>538.44</ele>
      <time>1969-12-31T23:01:50Z</time>
    </trkpt>
    <trkpt lat="43.429138139" lon="12.475720402">
      <ele>540.53</ele>
      <time>1969-12-31T23:01:51Z</time>
    </trkpt>
    <trkpt lat="43.429199243" lon="12.475600205">
      <ele>540.75</ele>
      <time>1969-12-31T23:01:52Z</time>
    </trkpt>
    <trkpt lat="43.429149622" lon="12.475230228">
      <ele>537.01</ele>
      <time>1969-12-31T23:01:53Z</time>
    </trkpt>
    <trkpt lat="43.429378532" lon="12.474980364">
      <ele>540.88</ele>
      <time>1969-12-31T23:01:54Z</time>
    </trkpt>
    <trkpt lat="43.4295082" lon="12.474929821">
      <ele>543.62</ele>
      <time>1969-12-31T23:01:55Z</time>
    </trkpt>
    <trkpt lat="43.430141453" lon="12.475279849">
      <ele>562.9</ele>
      <time>1969-12-31T23:01:56Z</time>
    </trkpt>
    <trkpt lat="43.430850981" lon="12.475970266">
      <ele>583.89</ele>
      <time>1969-12-31T23:01:57Z</time>
    </trkpt>
    <trkpt lat="43.431198159" lon="12.476479551">
      <ele>594.47</ele>
      <time>1969-12-31T23:01:58Z</time>
    </trkpt>
    <trkpt lat="43.43135071" lon="12.477000235">
      <ele>600.62</ele>
      <time>1969-12-31T23:01:59Z</time>
    </trkpt>
    <trkpt lat="43.431331599" lon="12.477149935">
      <ele>602.29</ele>
      <time>1969-12-31T23:02:00Z</time>
    </trkpt>
    <trkpt lat="43.430938739" lon="12.476779958">
      <ele>592.01</ele>
      <time>1969-12-31T23:02:01Z</time>
    </trkpt>
    <trkpt lat="43.430618299" lon="12.476730337">
      <ele>583.02</ele>
      <time>1969-12-31T23:02:02Z</time>
    </trkpt>
    <trkpt lat="43.430568678" lon="12.476860089">
      <ele>581.52</ele>
      <time>1969-12-31T23:02:03Z</time>
    </trkpt>
    <trkpt lat="43.430610672" lon="12.477000235">
      <ele>582.75</ele>
      <time>1969-12-31T23:02:04Z</time>
    </trkpt>
    <trkpt lat="43.431259179" lon="12.477769861">
      <ele>602.74</ele>
      <time>1969-12-31T23:02:05Z</time>
    </trkpt>
    <trkpt lat="43.431461351" lon="12.478099857">
      <ele>608.29</ele>
      <time>1969-12-31T23:02:06Z</time>
    </trkpt>
    <trkpt lat="43.431499489" lon="12.478560442">
      <ele>614.42</ele>
      <time>1969-12-31T23:02:07Z</time>
    </trkpt>
    <trkpt lat="43.431430841" lon="12.479249937">
      <ele>621.32</ele>
      <time>1969-12-31T23:02:08Z</time>
    </trkpt>
    <trkpt lat="43.431438468" lon="12.479530312">
      <ele>623.9</ele>
      <time>1969-12-31T23:02:09Z</time>
    </trkpt>
    <trkpt lat="43.431240069" lon="12.480719537">
      <ele>632.97</ele>
      <time>1969-12-31T23:02:10Z</time>
    </trkpt>
    <trkpt lat="43.430938739" lon="12.481880179">
      <ele>648.38</ele>
      <time>1969-12-31T23:02:11Z</time>
    </trkpt>
    <trkpt lat="43.43101887" lon="12.482660282">
      <ele>647.29</ele>
      <time>1969-12-31T23:02:12Z</time>
    </trkpt>
    <trkpt lat="43.431129428" lon="12.483090442">
      <ele>645.27</ele>
      <time>1969-12-31T23:02:13Z</time>
    </trkpt>
    <trkpt lat="43.430648809" lon="12.483779937">
      <ele>637.84</ele>
      <time>1969-12-31T23:02:14Z</time>
    </trkpt>
    <trkpt lat="43.43051143" lon="12.484100377">
      <ele>634.66</ele>
      <time>1969-12-31T23:02:15Z</time>
    </trkpt>
    <trkpt lat="43.430328369" lon="12.485019704">
      <ele>633.04</ele>
      <time>1969-12-31T23:02:16Z</time>
    </trkpt>
    <trkpt lat="43.430381762" lon="12.485719677">
      <ele>638.63</ele>
      <time>1969-12-31T23:02:17Z</time>
    </trkpt>
    <trkpt lat="43.43046952" lon="12.486000052">
      <ele>641.79</ele>
      <time>1969-12-31T23:02:18Z</time>
    </trkpt>
    <trkpt lat="43.430568678" lon="12.486470193">
      <ele>646.57</ele>
      <time>1969-12-31T23:02:19Z</time>
    </trkpt>
    <trkpt lat="43.430599188" lon="12.487090118">
      <ele>651.1</ele>
      <time>1969-12-31T23:02:20Z</time>
    </trkpt>
    <trkpt lat="43.430530541" lon="12.488940256">
      <ele>679.0</ele>
      <time>1969-12-31T23:02:21Z</time>
    </trkpt>
    <trkpt lat="43.430618299" lon="12.489359854">
      <ele>686.74</ele>
      <time>1969-12-31T23:02:22Z</time>
    </trkpt>
    <trkpt lat="43.430828098" lon="12.489720359">
      <ele>691.73</ele>
      <time>1969-12-31T23:02:23Z</time>
    </trkpt>
    <trkpt lat="43.430889118" lon="12.490010289">
      <ele>696.41</ele>
      <time>1969-12-31T23:02:24Z</time>
    </trkpt>
    <trkpt lat="43.430988276" lon="12.490189578">
      <ele>698.21</ele>
      <time>1969-12-31T23:02:25Z</time>
    </trkpt>
    <trkpt lat="43.431148538" lon="12.490180023">
      <ele>695.09</ele>
      <time>1969-12-31T23:02:26Z</time>
    </trkpt>
    <trkpt lat="43.43157962" lon="12.489720359">
      <ele>682.23</ele>
      <time>1969-12-31T23:02:27Z</time>
    </trkpt>
    <trkpt lat="43.431770308" lon="12.489680294">
      <ele>681.45</ele>
      <time>1969-12-31T23:02:28Z</time>
    </trkpt>
    <trkpt lat="43.432098376" lon="12.489990257">
      <ele>685.87</ele>
      <time>1969-12-31T23:02:29Z</time>
    </trkpt>
    <trkpt lat="43.432300547" lon="12.49030022">
      <ele>690.54</ele>
      <time>1969-12-31T23:02:30Z</time>
    </trkpt>
    <trkpt lat="43.432388306" lon="12.49051949">
      <ele>693.52</ele>
      <time>1969-12-31T23:02:31Z</time>
    </trkpt>
    <trkpt lat="43.432441698" lon="12.49106029">
      <ele>700.62</ele>
      <time>1969-12-31T23:02:32Z</time>
    </trkpt>
    <trkpt lat="43.432411188" lon="12.49127009">
      <ele>707.18</ele>
      <time>1969-12-31T23:02:33Z</time>
    </trkpt>
    <trkpt lat="43.432510346" lon="12.491579968">
      <ele>715.97</ele>
      <time>1969-12-31T23:02:34Z</time>
    </trkpt>
    <trkpt lat="43.432609588" lon="12.491669655">
      <ele>717.89</ele>
      <time>1969-12-31T23:02:35Z</time>
    </trkpt>
    <trkpt lat="43.433071179" lon="12.491689688">
      <ele>715.16</ele>
      <time>1969-12-31T23:02:36Z</time>
    </trkpt>
    <trkpt lat="43.433170337" lon="12.491780296">
      <ele>717.4</ele>
      <time>1969-12-31T23:02:37Z</time>
    </trkpt>
    <trkpt lat="43.433441157" lon="12.491800329">
      <ele>716.41</ele>
      <time>1969-12-31T23:02:38Z</time>
    </trkpt>
    <trkpt lat="43.433540314" lon="12.491720198">
      <ele>713.32</ele>
      <time>1969-12-31T23:02:39Z</time>
    </trkpt>
    <trkpt lat="43.433769224" lon="12.49116037">
      <ele>699.02</ele>
      <time>1969-12-31T23:02:40Z</time>
    </trkpt>
    <trkpt lat="43.434101064" lon="12.490559556">
      <ele>698.17</ele>
      <time>1969-12-31T23:02:41Z</time>
    </trkpt>
    <trkpt lat="43.434230816" lon="12.489939714">
      <ele>695.05</ele>
      <time>1969-12-31T23:02:42Z</time>
    </trkpt>
    <trkpt lat="43.434398621" lon="12.489279723">
      <ele>694.64</ele>
      <time>1969-12-31T23:02:43Z</time>
    </trkpt>
    <trkpt lat="43.43460842" lon="12.488750489">
      <ele>699.82</ele>
      <time>1969-12-31T23:02:44Z</time>
    </trkpt>
    <trkpt lat="43.434711434" lon="12.488719979">
      <ele>703.26</ele>
      <time>1969-12-31T23:02:45Z</time>
    </trkpt>
    <trkpt lat="43.434871696" lon="12.488929778">
      <ele>709.74</ele>
      <time>1969-12-31T23:02:46Z</time>
    </trkpt>
    <trkpt lat="43.434951743" lon="12.489179643">
      <ele>713.74</ele>
      <time>1969-12-31T23:02:47Z</time>
    </trkpt>
    <trkpt lat="43.434871696" lon="12.489419952">
      <ele>712.92</ele>
      <time>1969-12-31T23:02:48Z</time>
    </trkpt>
    <trkpt lat="43.434780082" lon="12.489979779">
      <ele>714.93</ele>
      <time>1969-12-31T23:02:49Z</time>
    </trkpt>
    <trkpt lat="43.434390994" lon="12.49073985">
      <ele>707.15</ele>
      <time>1969-12-31T23:02:50Z</time>
    </trkpt>
    <trkpt lat="43.434261326" lon="12.491589524">
      <ele>714.17</ele>
      <time>1969-12-31T23:02:51Z</time>
    </trkpt>
    <trkpt lat="43.434299463" lon="12.491869899">
      <ele>718.62</ele>
      <time>1969-12-31T23:02:52Z</time>
    </trkpt>
    <trkpt lat="43.434528373" lon="12.492230404">
      <ele>722.03</ele>
      <time>1969-12-31T23:02:53Z</time>
    </trkpt>
    <trkpt lat="43.434631387" lon="12.49228958">
      <ele>722.06</ele>
      <time>1969-12-31T23:02:54Z</time>
    </trkpt>
    <trkpt lat="43.434661897" lon="12.492409693">
      <ele>723.62</ele>
      <time>1969-12-31T23:02:55Z</time>
    </trkpt>
    <trkpt lat="43.43460842" lon="12.492580432">
      <ele>727.29</ele>
      <time>1969-12-31T23:02:56Z</time>
    </trkpt>
    <trkpt lat="43.434421504" lon="12.492770199">
      <ele>735.22</ele>
      <time>1969-12-31T23:02:57Z</time>
    </trkpt>
    <trkpt lat="43.433948513" lon="12.492979998">
      <ele>749.97</ele>
      <time>1969-12-31T23:02:58Z</time>
    </trkpt>
    <trkpt lat="43.433959996" lon="12.493089717">
      <ele>753.15</ele>
      <time>1969-12-31T23:02:59Z</time>
    </trkpt>
    <trkpt lat="43.434089664" lon="12.49314026">
      <ele>752.67</ele>
      <time>1969-12-31T23:03:00Z</time>
    </trkpt>
    <trkpt lat="43.434181195" lon="12.493260372">
      <ele>752.65</ele>
      <time>1969-12-31T23:03:01Z</time>
    </trkpt>
    <trkpt lat="43.433990506" lon="12.494090097">
      <ele>765.04</ele>
      <time>1969-12-31T23:03:02Z</time>
    </trkpt>
    <trkpt lat="43.434051527" lon="12.494489662">
      <ele>760.09</ele>
      <time>1969-12-31T23:03:03Z</time>
    </trkpt>
    <trkpt lat="43.434028644" lon="12.494620336">
      <ele>759.15</ele>
      <time>1969-12-31T23:03:04Z</time>
    </trkpt>
    <trkpt lat="43.433849355" lon="12.494750004">
      <ele>762.03</ele>
      <time>1969-12-31T23:03:05Z</time>
    </trkpt>
    <trkpt lat="43.433509804" lon="12.49475956">
      <ele>770.22</ele>
      <time>1969-12-31T23:03:06Z</time>
    </trkpt>
    <trkpt lat="43.433399163" lon="12.494899789">
      <ele>769.77</ele>
      <time>1969-12-31T23:03:07Z</time>
    </trkpt>
    <trkpt lat="43.433391536" lon="12.495070444">
      <ele>768.26</ele>
      <time>1969-12-31T23:03:08Z</time>
    </trkpt>
    <trkpt lat="43.433151226" lon="12.495679893">
      <ele>761.21</ele>
      <time>1969-12-31T23:03:09Z</time>
    </trkpt>
    <trkpt lat="43.432979565" lon="12.49637031">
      <ele>752.72</ele>
      <time>1969-12-31T23:03:10Z</time>
    </trkpt>
    <trkpt lat="43.432941427" lon="12.49691966">
      <ele>747.42</ele>
      <time>1969-12-31T23:03:11Z</time>
    </trkpt>
    <trkpt lat="43.433280978" lon="12.498169905">
      <ele>748.73</ele>
      <time>1969-12-31T23:03:12Z</time>
    </trkpt>
    <trkpt lat="43.433319116" lon="12.498570476">
      <ele>750.39</ele>
      <time>1969-12-31T23:03:13Z</time>
    </trkpt>
    <trkpt lat="43.433460267" lon="12.499230383">
      <ele>758.37</ele>
      <time>1969-12-31T23:03:14Z</time>
    </trkpt>
    <trkpt lat="43.433441157" lon="12.49956985">
      <ele>767.24</ele>
      <time>1969-12-31T23:03:15Z</time>
    </trkpt>
    <trkpt lat="43.433078807" lon="12.500229841">
      <ele>782.58</ele>
      <time>1969-12-31T23:03:16Z</time>
    </trkpt>
    <trkpt lat="43.432910917" lon="12.50037007">
      <ele>783.27</ele>
      <time>1969-12-31T23:03:17Z</time>
    </trkpt>
    <trkpt lat="43.432590477" lon="12.500459673">
      <ele>779.96</ele>
      <time>1969-12-31T23:03:18Z</time>
    </trkpt>
    <trkpt lat="43.432209017" lon="12.500679949">
      <ele>772.39</ele>
      <time>1969-12-31T23:03:19Z</time>
    </trkpt>
    <trkpt lat="43.4313202" lon="12.500519771">
      <ele>757.47</ele>
      <time>1969-12-31T23:03:20Z</time>
    </trkpt>
    <trkpt lat="43.430870092" lon="12.500630412">
      <ele>753.48</ele>
      <time>1969-12-31T23:03:21Z</time>
    </trkpt>
    <trkpt lat="43.429531083" lon="12.500639884">
      <ele>741.18</ele>
      <time>1969-12-31T23:03:22Z</time>
    </trkpt>
    <trkpt lat="43.429298401" lon="12.500559837">
      <ele>735.68</ele>
      <time>1969-12-31T23:03:23Z</time>
    </trkpt>
    <trkpt lat="43.42892834" lon="12.500109645">
      <ele>731.75</ele>
      <time>1969-12-31T23:03:24Z</time>
    </trkpt>
    <trkpt lat="43.428508742" lon="12.500040075">
      <ele>723.47</ele>
      <time>1969-12-31T23:03:25Z</time>
    </trkpt>
    <trkpt lat="43.427719083" lon="12.499489803">
      <ele>718.97</ele>
      <time>1969-12-31T23:03:26Z</time>
    </trkpt>
    <trkpt lat="43.427539794" lon="12.49950028">
      <ele>716.8</ele>
      <time>1969-12-31T23:03:27Z</time>
    </trkpt>
    <trkpt lat="43.426929507" lon="12.499170285">
      <ele>716.7</ele>
      <time>1969-12-31T23:03:28Z</time>
    </trkpt>
    <trkpt lat="43.426181758" lon="12.498410214">
      <ele>716.32</ele>
      <time>1969-12-31T23:03:29Z</time>
    </trkpt>
    <trkpt lat="43.425849918" lon="12.498220447">
      <ele>711.31</ele>
      <time>1969-12-31T23:03:30Z</time>
    </trkpt>
    <trkpt lat="43.425678257" lon="12.498230003">
      <ele>707.03</ele>
      <time>1969-12-31T23:03:31Z</time>
    </trkpt>
    <trkpt lat="43.425548589" lon="12.49798961">
      <ele>706.01</ele>
      <time>1969-12-31T23:03:32Z</time>
    </trkpt>
    <trkpt lat="43.425281541" lon="12.497750307">
      <ele>699.66</ele>
      <time>1969-12-31T23:03:33Z</time>
    </trkpt>
    <trkpt lat="43.424781812" lon="12.496800385">
      <ele>693.1</ele>
      <time>1969-12-31T23:03:34Z</time>
    </trkpt>
    <trkpt lat="43.424640661" lon="12.496800385">
      <ele>689.52</ele>
      <time>1969-12-31T23:03:35Z</time>
    </trkpt>
    <trkpt lat="43.42424009" lon="12.497679731">
      <ele>669.71</ele>
      <time>1969-12-31T23:03:36Z</time>
    </trkpt>
    <trkpt lat="43.424140932" lon="12.498080218">
      <ele>662.12</ele>
      <time>1969-12-31T23:03:37Z</time>
    </trkpt>
    <trkpt lat="43.42430111" lon="12.498270068">
      <ele>664.12</ele>
      <time>1969-12-31T23:03:38Z</time>
    </trkpt>
    <trkpt lat="43.424339332" lon="12.498510377">
      <ele>662.33</ele>
      <time>1969-12-31T23:03:39Z</time>
    </trkpt>
    <trkpt lat="43.42424009" lon="12.498570476">
      <ele>659.38</ele>
      <time>1969-12-31T23:03:40Z</time>
    </trkpt>
    <trkpt lat="43.423648831" lon="12.497900007">
      <ele>655.25</ele>
      <time>1969-12-31T23:03:41Z</time>
    </trkpt>
    <trkpt lat="43.42274853" lon="12.498049708">
      <ele>644.52</ele>
      <time>1969-12-31T23:03:42Z</time>
    </trkpt>
    <trkpt lat="43.422611235" lon="12.497909563">
      <ele>644.96</ele>
      <time>1969-12-31T23:03:43Z</time>
    </trkpt>
    <trkpt lat="43.422649372" lon="12.497200035">
      <ele>647.04</ele>
      <time>1969-12-31T23:03:44Z</time>
    </trkpt>
    <trkpt lat="43.422798151" lon="12.496800385">
      <ele>646.35</ele>
      <time>1969-12-31T23:03:45Z</time>
    </trkpt>
    <trkpt lat="43.422691366" lon="12.496179622">
      <ele>641.33</ele>
      <time>1969-12-31T23:03:46Z</time>
    </trkpt>
    <trkpt lat="43.422550214" lon="12.495860104">
      <ele>637.95</ele>
      <time>1969-12-31T23:03:47Z</time>
    </trkpt>
    <trkpt lat="43.421581266" lon="12.495200196">
      <ele>621.99</ele>
      <time>1969-12-31T23:03:48Z</time>
    </trkpt>
    <trkpt lat="43.421249427" lon="12.494859723">
      <ele>622.75</ele>
      <time>1969-12-31T23:03:49Z</time>
    </trkpt>
    <trkpt lat="43.420909876" lon="12.494870201">
      <ele>615.81</ele>
      <time>1969-12-31T23:03:50Z</time>
    </trkpt>
    <trkpt lat="43.420730587" lon="12.494979836">
      <ele>609.64</ele>
      <time>1969-12-31T23:03:51Z</time>
    </trkpt>
    <trkpt lat="43.420570409" lon="12.494970281">
      <ele>606.61</ele>
      <time>1969-12-31T23:03:52Z</time>
    </trkpt>
    <trkpt lat="43.420211831" lon="12.494739527">
      <ele>605.78</ele>
      <time>1969-12-31T23:03:53Z</time>
    </trkpt>
    <trkpt lat="43.419788377" lon="12.494319929">
      <ele>608.72</ele>
      <time>1969-12-31T23:03:54Z</time>
    </trkpt>
    <trkpt lat="43.419509931" lon="12.494279863">
      <ele>609.01</ele>
      <time>1969-12-31T23:03:55Z</time>
    </trkpt>
    <trkpt lat="43.419269538" lon="12.494380027">
      <ele>606.17</ele>
      <time>1969-12-31T23:03:56Z</time>
    </trkpt>
    <trkpt lat="43.41889956" lon="12.494839691">
      <ele>593.06</ele>
      <time>1969-12-31T23:03:57Z</time>
    </trkpt>
    <trkpt lat="43.41857912" lon="12.49479007">
      <ele>592.67</ele>
      <time>1969-12-31T23:03:58Z</time>
    </trkpt>
    <trkpt lat="43.418090791" lon="12.494319929">
      <ele>587.05</ele>
      <time>1969-12-31T23:03:59Z</time>
    </trkpt>
    <trkpt lat="43.417831454" lon="12.493740069">
      <ele>574.94</ele>
      <time>1969-12-31T23:04:00Z</time>
    </trkpt>
    <trkpt lat="43.417518642" lon="12.49324034">
      <ele>560.58</ele>
      <time>1969-12-31T23:04:01Z</time>
    </trkpt>
    <trkpt lat="43.41738889" lon="12.492779754">
      <ele>553.99</ele>
      <time>1969-12-31T23:04:02Z</time>
    </trkpt>
    <trkpt lat="43.417488132" lon="12.492540367">
      <ele>557.48</ele>
      <time>1969-12-31T23:04:03Z</time>
    </trkpt>
    <trkpt lat="43.418159438" lon="12.492380105">
      <ele>575.9</ele>
      <time>1969-12-31T23:04:04Z</time>
    </trkpt>
    <trkpt lat="43.41822817" lon="12.49228958">
      <ele>576.25</ele>
      <time>1969-12-31T23:04:05Z</time>
    </trkpt>
    <trkpt lat="43.41822817" lon="12.491889931">
      <ele>567.89</ele>
      <time>1969-12-31T23:04:06Z</time>
    </trkpt>
    <trkpt lat="43.418281563" lon="12.491769819">
      <ele>566.31</ele>
      <time>1969-12-31T23:04:07Z</time>
    </trkpt>
    <trkpt lat="43.418491362" lon="12.491680132">
      <ele>568.15</ele>
      <time>1969-12-31T23:04:08Z</time>
    </trkpt>
    <trkpt lat="43.41857912" lon="12.491410235">
      <ele>563.8</ele>
      <time>1969-12-31T23:04:09Z</time>
    </trkpt>
    <trkpt lat="43.418369321" lon="12.490960127">
      <ele>554.69</ele>
      <time>1969-12-31T23:04:10Z</time>
    </trkpt>
    <trkpt lat="43.417488132" lon="12.490469953">
      <ele>531.11</ele>
      <time>1969-12-31T23:04:11Z</time>
    </trkpt>
    <trkpt lat="43.417400373" lon="12.490349757">
      <ele>528.46</ele>
      <time>1969-12-31T23:04:12Z</time>
    </trkpt>
    <trkpt lat="43.417499531" lon="12.48976998">
      <ele>530.13</ele>
      <time>1969-12-31T23:04:13Z</time>
    </trkpt>
    <trkpt lat="43.41764831" lon="12.489339821">
      <ele>534.12</ele>
      <time>1969-12-31T23:04:14Z</time>
    </trkpt>
    <trkpt lat="43.417640682" lon="12.48915961">
      <ele>533.94</ele>
      <time>1969-12-31T23:04:15Z</time>
    </trkpt>
    <trkpt lat="43.4174194" lon="12.488400461">
      <ele>526.16</ele>
      <time>1969-12-31T23:04:16Z</time>
    </trkpt>
    <trkpt lat="43.417270621" lon="12.487369571">
      <ele>515.96</ele>
      <time>1969-12-31T23:04:17Z</time>
    </trkpt>
    <trkpt lat="43.417259222" lon="12.486530291">
      <ele>510.4</ele>
      <time>1969-12-31T23:04:18Z</time>
    </trkpt>
    <trkpt lat="43.417110443" lon="12.486120248">
      <ele>506.05</ele>
      <time>1969-12-31T23:04:19Z</time>
    </trkpt>
    <trkpt lat="43.417011285" lon="12.486020084">
      <ele>506.05</ele>
      <time>1969-12-31T23:04:20Z</time>
    </trkpt>
    <trkpt lat="43.416030854" lon="12.485610042">
      <ele>511.98</ele>
      <time>1969-12-31T23:04:21Z</time>
    </trkpt>
    <trkpt lat="43.415771518" lon="12.485210393">
      <ele>515.3</ele>
      <time>1969-12-31T23:04:22Z</time>
    </trkpt>
    <trkpt lat="43.415828682" lon="12.484840415">
      <ele>510.27</ele>
      <time>1969-12-31T23:04:23Z</time>
    </trkpt>
    <trkpt lat="43.415588373" lon="12.484569512">
      <ele>512.02</ele>
      <time>1969-12-31T23:04:24Z</time>
    </trkpt>
    <trkpt lat="43.415218312" lon="12.484530453">
      <ele>519.21</ele>
      <time>1969-12-31T23:04:25Z</time>
    </trkpt>
    <trkpt lat="43.414588915" lon="12.484319732">
      <ele>521.82</ele>
      <time>1969-12-31T23:04:26Z</time>
    </trkpt>
    <trkpt lat="43.414241821" lon="12.484330209">
      <ele>523.33</ele>
      <time>1969-12-31T23:04:27Z</time>
    </trkpt>
    <trkpt lat="43.413440678" lon="12.484849971">
      <ele>538.21</ele>
      <time>1969-12-31T23:04:28Z</time>
    </trkpt>
    <trkpt lat="43.41315846" lon="12.484950051">
      <ele>540.36</ele>
      <time>1969-12-31T23:04:29Z</time>
    </trkpt>
    <trkpt lat="43.412681613" lon="12.484959606">
      <ele>541.16</ele>
      <time>1969-12-31T23:04:30Z</time>
    </trkpt>
    <trkpt lat="43.412479442" lon="12.484849971">
      <ele>540.99</ele>
      <time>1969-12-31T23:04:31Z</time>
    </trkpt>
    <trkpt lat="43.41207887" lon="12.484080344">
      <ele>538.26</ele>
      <time>1969-12-31T23:04:32Z</time>
    </trkpt>
    <trkpt lat="43.410511035" lon="12.481880179">
      <ele>538.25</ele>
      <time>1969-12-31T23:04:33Z</time>
    </trkpt>
    <trkpt lat="43.410118092" lon="12.481599804">
      <ele>540.92</ele>
      <time>1969-12-31T23:04:34Z</time>
    </trkpt>
    <trkpt lat="43.409881555" lon="12.48153015">
      <ele>542.0</ele>
      <time>1969-12-31T23:04:35Z</time>
    </trkpt>
    <trkpt lat="43.409770997" lon="12.481570216">
      <ele>543.08</ele>
      <time>1969-12-31T23:04:36Z</time>
    </trkpt>
    <trkpt lat="43.409629846" lon="12.481889734">
      <ele>547.35</ele>
      <time>1969-12-31T23:04:37Z</time>
    </trkpt>
    <trkpt lat="43.409500094" lon="12.48328968">
      <ele>559.43</ele>
      <time>1969-12-31T23:04:38Z</time>
    </trkpt>
    <trkpt lat="43.409420047" lon="12.483550105">
      <ele>562.07</ele>
      <time>1969-12-31T23:04:39Z</time>
    </trkpt>
    <trkpt lat="43.408851586" lon="12.484060312">
      <ele>571.62</ele>
      <time>1969-12-31T23:04:40Z</time>
    </trkpt>
    <trkpt lat="43.407909377" lon="12.484629611">
      <ele>589.57</ele>
      <time>1969-12-31T23:04:41Z</time>
    </trkpt>
    <trkpt lat="43.406898519" lon="12.484700186">
      <ele>593.38</ele>
      <time>1969-12-31T23:04:42Z</time>
    </trkpt>
    <trkpt lat="43.406501804" lon="12.485079803">
      <ele>598.45</ele>
      <time>1969-12-31T23:04:43Z</time>
    </trkpt>
    <trkpt lat="43.406188991" lon="12.485280046">
      <ele>601.66</ele>
      <time>1969-12-31T23:04:44Z</time>
    </trkpt>
    <trkpt lat="43.405738799" lon="12.48538021">
      <ele>603.31</ele>
      <time>1969-12-31T23:04:45Z</time>
    </trkpt>
    <trkpt lat="43.405200932" lon="12.485400159">
      <ele>603.57</ele>
      <time>1969-12-31T23:04:46Z</time>
    </trkpt>
    <trkpt lat="43.405010244" lon="12.485340144">
      <ele>602.82</ele>
      <time>1969-12-31T23:04:47Z</time>
    </trkpt>
    <trkpt lat="43.404560052" lon="12.485019704">
      <ele>600.49</ele>
      <time>1969-12-31T23:04:48Z</time>
    </trkpt>
    <trkpt lat="43.404449495" lon="12.484860448">
      <ele>599.32</ele>
      <time>1969-12-31T23:04:49Z</time>
    </trkpt>
    <trkpt lat="43.403648352" lon="12.484230045">
      <ele>600.71</ele>
      <time>1969-12-31T23:04:50Z</time>
    </trkpt>
    <trkpt lat="43.402889287" lon="12.48383048">
      <ele>604.76</ele>
      <time>1969-12-31T23:04:51Z</time>
    </trkpt>
    <trkpt lat="43.401981359" lon="12.483699806">
      <ele>608.55</ele>
      <time>1969-12-31T23:04:52Z</time>
    </trkpt>
    <trkpt lat="43.401859319" lon="12.483619675">
      <ele>608.35</ele>
      <time>1969-12-31T23:04:53Z</time>
    </trkpt>
    <trkpt lat="43.401599899" lon="12.483260175">
      <ele>604.6</ele>
      <time>1969-12-31T23:04:54Z</time>
    </trkpt>
    <trkpt lat="43.401031522" lon="12.483240142">
      <ele>608.59</ele>
      <time>1969-12-31T23:04:55Z</time>
    </trkpt>
    <trkpt lat="43.400451662" lon="12.482919702">
      <ele>604.69</ele>
      <time>1969-12-31T23:04:56Z</time>
    </trkpt>
    <trkpt lat="43.399990071" lon="12.483070409">
      <ele>608.8</ele>
      <time>1969-12-31T23:04:57Z</time>
    </trkpt>
    <trkpt lat="43.398769414" lon="12.483770382">
      <ele>603.81</ele>
      <time>1969-12-31T23:04:58Z</time>
    </trkpt>
    <trkpt lat="43.398479484" lon="12.483929638">
      <ele>600.31</ele>
      <time>1969-12-31T23:04:59Z</time>
    </trkpt>
    <trkpt lat="43.398071285" lon="12.484169947">
      <ele>591.51</ele>
      <time>1969-12-31T23:05:00Z</time>
    </trkpt>
    <trkpt lat="43.397968272" lon="12.48418998">
      <ele>588.46</ele>
      <time>1969-12-31T23:05:01Z</time>
    </trkpt>
    <trkpt lat="43.397480026" lon="12.484629611">
      <ele>584.12</ele>
      <time>1969-12-31T23:05:02Z</time>
    </trkpt>
    <trkpt lat="43.397239717" lon="12.485039737">
      <ele>586.87</ele>
      <time>1969-12-31T23:05:03Z</time>
    </trkpt>
    <trkpt lat="43.397041317" lon="12.485219948">
      <ele>586.33</ele>
      <time>1969-12-31T23:05:04Z</time>
    </trkpt>
    <trkpt lat="43.396930676" lon="12.485199915">
      <ele>583.27</ele>
      <time>1969-12-31T23:05:05Z</time>
    </trkpt>
    <trkpt lat="43.396579726" lon="12.485400159">
      <ele>578.7</ele>
      <time>1969-12-31T23:05:06Z</time>
    </trkpt>
    <trkpt lat="43.3963509" lon="12.485639546">
      <ele>576.03</ele>
      <time>1969-12-31T23:05:07Z</time>
    </trkpt>
    <trkpt lat="43.395359069" lon="12.48731995">
      <ele>559.58</ele>
      <time>1969-12-31T23:05:08Z</time>
    </trkpt>
    <trkpt lat="43.395141559" lon="12.488010451">
      <ele>551.45</ele>
      <time>1969-12-31T23:05:09Z</time>
    </trkpt>
    <trkpt lat="43.395130159" lon="12.488200217">
      <ele>551.88</ele>
      <time>1969-12-31T23:05:10Z</time>
    </trkpt>
    <trkpt lat="43.395019518" lon="12.488470115">
      <ele>548.5</ele>
      <time>1969-12-31T23:05:11Z</time>
    </trkpt>
    <trkpt lat="43.394981381" lon="12.488779994">
      <ele>547.88</ele>
      <time>1969-12-31T23:05:12Z</time>
    </trkpt>
    <trkpt lat="43.39479832" lon="12.4892902">
      <ele>541.25</ele>
      <time>1969-12-31T23:05:13Z</time>
    </trkpt>
    <trkpt lat="43.394619031" lon="12.48954962">
      <ele>534.49</ele>
      <time>1969-12-31T23:05:14Z</time>
    </trkpt>
    <trkpt lat="43.39424897" lon="12.490340201">
      <ele>519.29</ele>
      <time>1969-12-31T23:05:15Z</time>
    </trkpt>
    <trkpt lat="43.39430999" lon="12.490810426">
      <ele>520.55</ele>
      <time>1969-12-31T23:05:16Z</time>
    </trkpt>
    <trkpt lat="43.39456941" lon="12.491339659">
      <ele>547.49</ele>
      <time>1969-12-31T23:05:17Z</time>
    </trkpt>
    <trkpt lat="43.394580809" lon="12.491530431">
      <ele>554.39</ele>
      <time>1969-12-31T23:05:18Z</time>
    </trkpt>
    <trkpt lat="43.394500762" lon="12.491660099">
      <ele>554.88</ele>
      <time>1969-12-31T23:05:19Z</time>
    </trkpt>
    <trkpt lat="43.39411159" lon="12.491680132">
      <ele>536.68</ele>
      <time>1969-12-31T23:05:20Z</time>
    </trkpt>
    <trkpt lat="43.393810261" lon="12.49188046">
      <ele>529.47</ele>
      <time>1969-12-31T23:05:21Z</time>
    </trkpt>
    <trkpt lat="43.393230401" lon="12.492959965">
      <ele>548.15</ele>
      <time>1969-12-31T23:05:22Z</time>
    </trkpt>
    <trkpt lat="43.392131785" lon="12.49407962">
      <ele>544.73</ele>
      <time>1969-12-31T23:05:23Z</time>
    </trkpt>
    <trkpt lat="43.391948724" lon="12.494190261">
      <ele>541.37</ele>
      <time>1969-12-31T23:05:24Z</time>
    </trkpt>
    <trkpt lat="43.391761808" lon="12.494159667">
      <ele>534.29</ele>
      <time>1969-12-31T23:05:25Z</time>
    </trkpt>
    <trkpt lat="43.391620656" lon="12.4941797">
      <ele>530.37</ele>
      <time>1969-12-31T23:05:26Z</time>
    </trkpt>
    <trkpt lat="43.391681677" lon="12.494020443">
      <ele>528.73</ele>
      <time>1969-12-31T23:05:27Z</time>
    </trkpt>
    <trkpt lat="43.391700704" lon="12.493860265">
      <ele>526.08</ele>
      <time>1969-12-31T23:05:28Z</time>
    </trkpt>
    <trkpt lat="43.391521415" lon="12.493350059">
      <ele>514.63</ele>
      <time>1969-12-31T23:05:29Z</time>
    </trkpt>
    <trkpt lat="43.391319243" lon="12.493220307">
      <ele>509.54</ele>
      <time>1969-12-31T23:05:30Z</time>
    </trkpt>
    <trkpt lat="43.391178092" lon="12.493180241">
      <ele>506.68</ele>
      <time>1969-12-31T23:05:31Z</time>
    </trkpt>
    <trkpt lat="43.390739467" lon="12.493490204">
      <ele>501.61</ele>
      <time>1969-12-31T23:05:32Z</time>
    </trkpt>
    <trkpt lat="43.39017109" lon="12.494070064">
      <ele>494.13</ele>
      <time>1969-12-31T23:05:33Z</time>
    </trkpt>
    <trkpt lat="43.389968835" lon="12.494190261">
      <ele>491.11</ele>
      <time>1969-12-31T23:05:34Z</time>
    </trkpt>
    <trkpt lat="43.389759036" lon="12.49450014">
      <ele>489.01</ele>
      <time>1969-12-31T23:05:35Z</time>
    </trkpt>
    <trkpt lat="43.388988487" lon="12.494979836">
      <ele>475.7</ele>
      <time>1969-12-31T23:05:36Z</time>
    </trkpt>
    <trkpt lat="43.388210312" lon="12.495779973">
      <ele>464.19</ele>
      <time>1969-12-31T23:05:37Z</time>
    </trkpt>
    <trkpt lat="43.387901271" lon="12.496910105">
      <ele>466.26</ele>
      <time>1969-12-31T23:05:38Z</time>
    </trkpt>
    <trkpt lat="43.387451163" lon="12.497220067">
      <ele>459.06</ele>
      <time>1969-12-31T23:05:39Z</time>
    </trkpt>
    <trkpt lat="43.387008682" lon="12.497659698">
      <ele>449.12</ele>
      <time>1969-12-31T23:05:40Z</time>
    </trkpt>
    <trkpt lat="43.386489842" lon="12.498550443">
      <ele>437.13</ele>
      <time>1969-12-31T23:05:41Z</time>
    </trkpt>
    <trkpt lat="43.385848962" lon="12.500009565">
      <ele>433.03</ele>
      <time>1969-12-31T23:05:42Z</time>
    </trkpt>
    <trkpt lat="43.385658273" lon="12.50014971">
      <ele>432.7</ele>
      <time>1969-12-31T23:05:43Z</time>
    </trkpt>
    <trkpt lat="43.385360716" lon="12.500209808">
      <ele>432.45</ele>
      <time>1969-12-31T23:05:44Z</time>
    </trkpt>
    <trkpt lat="43.385120407" lon="12.500350038">
      <ele>432.71</ele>
      <time>1969-12-31T23:05:45Z</time>
    </trkpt>
    <trkpt lat="43.384571057" lon="12.501190156">
      <ele>435.55</ele>
      <time>1969-12-31T23:05:46Z</time>
    </trkpt>
    <trkpt lat="43.384250617" lon="12.501480086">
      <ele>435.69</ele>
      <time>1969-12-31T23:05:47Z</time>
    </trkpt>
    <trkpt lat="43.383979797" lon="12.501640348">
      <ele>434.21</ele>
      <time>1969-12-31T23:05:48Z</time>
    </trkpt>
    <trkpt lat="43.384368885" lon="12.501919717">
      <ele>437.61</ele>
      <time>1969-12-31T23:05:49Z</time>
    </trkpt>
    <trkpt lat="43.384471899" lon="12.502140077">
      <ele>439.35</ele>
      <time>1969-12-31T23:05:50Z</time>
    </trkpt>
    <trkpt lat="43.384540547" lon="12.503709756">
      <ele>451.77</ele>
      <time>1969-12-31T23:05:51Z</time>
    </trkpt>
    <trkpt lat="43.384368885" lon="12.50395962">
      <ele>451.7</ele>
      <time>1969-12-31T23:05:52Z</time>
    </trkpt>
    <trkpt lat="43.384269727" lon="12.504010163">
      <ele>451.12</ele>
      <time>1969-12-31T23:05:53Z</time>
    </trkpt>
    <trkpt lat="43.383590709" lon="12.504839888">
      <ele>456.67</ele>
      <time>1969-12-31T23:05:54Z</time>
    </trkpt>
    <trkpt lat="43.38312149" lon="12.505299551">
      <ele>455.03</ele>
      <time>1969-12-31T23:05:55Z</time>
    </trkpt>
    <trkpt lat="43.382671382" lon="12.505999608">
      <ele>451.11</ele>
      <time>1969-12-31T23:05:56Z</time>
    </trkpt>
    <trkpt lat="43.382278439" lon="12.506830255">
      <ele>450.81</ele>
      <time>1969-12-31T23:05:57Z</time>
    </trkpt>
    <trkpt lat="43.38187024" lon="12.507430064">
      <ele>448.03</ele>
      <time>1969-12-31T23:05:58Z</time>
    </trkpt>
    <trkpt lat="43.381420132" lon="12.50877955">
      <ele>455.67</ele>
      <time>1969-12-31T23:05:59Z</time>
    </trkpt>
    <trkpt lat="43.381160712" lon="12.50920007">
      <ele>455.21</ele>
      <time>1969-12-31T23:06:00Z</time>
    </trkpt>
    <trkpt lat="43.380130744" lon="12.509980174">
      <ele>444.49</ele>
      <time>1969-12-31T23:06:01Z</time>
    </trkpt>
    <trkpt lat="43.379928572" lon="12.510219561">
      <ele>444.58</ele>
      <time>1969-12-31T23:06:02Z</time>
    </trkpt>
    <trkpt lat="43.379371678" lon="12.510600099">
      <ele>441.5</ele>
      <time>1969-12-31T23:06:03Z</time>
    </trkpt>
    <trkpt lat="43.378559137" lon="12.51136017">
      <ele>437.87</ele>
      <time>1969-12-31T23:06:04Z</time>
    </trkpt>
    <trkpt lat="43.378360737" lon="12.511449773">
      <ele>435.62</ele>
      <time>1969-12-31T23:06:05Z</time>
    </trkpt>
    <trkpt lat="43.378040297" lon="12.511739703">
      <ele>433.97</ele>
      <time>1969-12-31T23:06:06Z</time>
    </trkpt>
    <trkpt lat="43.377529169" lon="12.511960063">
      <ele>428.77</ele>
      <time>1969-12-31T23:06:07Z</time>
    </trkpt>
    <trkpt lat="43.37683104" lon="12.512700101">
      <ele>423.66</ele>
      <time>1969-12-31T23:06:08Z</time>
    </trkpt>
    <trkpt lat="43.375839209" lon="12.514479663">
      <ele>409.94</ele>
      <time>1969-12-31T23:06:09Z</time>
    </trkpt>
    <trkpt lat="43.375759078" lon="12.514590221">
      <ele>409.29</ele>
      <time>1969-12-31T23:06:10Z</time>
    </trkpt>
    <trkpt lat="43.37562941" lon="12.514599776">
      <ele>407.78</ele>
      <time>1969-12-31T23:06:11Z</time>
    </trkpt>
    <trkpt lat="43.375511141" lon="12.514789542">
      <ele>407.16</ele>
      <time>1969-12-31T23:06:12Z</time>
    </trkpt>
    <trkpt lat="43.3754005" lon="12.514789542">
      <ele>405.96</ele>
      <time>1969-12-31T23:06:13Z</time>
    </trkpt>
    <trkpt lat="43.375331853" lon="12.514349911">
      <ele>403.63</ele>
      <time>1969-12-31T23:06:14Z</time>
    </trkpt>
    <trkpt lat="43.37530897" lon="12.51358984">
      <ele>403.59</ele>
      <time>1969-12-31T23:06:15Z</time>
    </trkpt>
    <trkpt lat="43.374900855" lon="12.513380041">
      <ele>401.53</ele>
      <time>1969-12-31T23:06:16Z</time>
    </trkpt>
    <trkpt lat="43.3746986" lon="12.513360009">
      <ele>400.76</ele>
      <time>1969-12-31T23:06:17Z</time>
    </trkpt>
    <trkpt lat="43.374309512" lon="12.513469728">
      <ele>399.03</ele>
      <time>1969-12-31T23:06:18Z</time>
    </trkpt>
    <trkpt lat="43.374069203" lon="12.513759574">
      <ele>398.97</ele>
      <time>1969-12-31T23:06:19Z</time>
    </trkpt>
    <trkpt lat="43.373329164" lon="12.514599776">
      <ele>402.49</ele>
      <time>1969-12-31T23:06:20Z</time>
    </trkpt>
    <trkpt lat="43.373241406" lon="12.514840169">
      <ele>403.82</ele>
      <time>1969-12-31T23:06:21Z</time>
    </trkpt>
    <trkpt lat="43.373329164" lon="12.515999805">
      <ele>409.94</ele>
      <time>1969-12-31T23:06:22Z</time>
    </trkpt>
    <trkpt lat="43.372600526" lon="12.51657011">
      <ele>411.98</ele>
      <time>1969-12-31T23:06:23Z</time>
    </trkpt>
    <trkpt lat="43.371990239" lon="12.517169919">
      <ele>413.74</ele>
      <time>1969-12-31T23:06:24Z</time>
    </trkpt>
    <trkpt lat="43.369121533" lon="12.519459687">
      <ele>411.55</ele>
      <time>1969-12-31T23:06:25Z</time>
    </trkpt>
    <trkpt lat="43.368640915" lon="12.519980455">
      <ele>412.0</ele>
      <time>1969-12-31T23:06:26Z</time>
    </trkpt>
    <trkpt lat="43.368270854" lon="12.520790063">
      <ele>411.59</ele>
      <time>1969-12-31T23:06:27Z</time>
    </trkpt>
    <trkpt lat="43.367908504" lon="12.521389956">
      <ele>411.25</ele>
      <time>1969-12-31T23:06:28Z</time>
    </trkpt>
    <trkpt lat="43.367679594" lon="12.521610232">
      <ele>411.08</ele>
      <time>1969-12-31T23:06:29Z</time>
    </trkpt>
    <trkpt lat="43.367210375" lon="12.521719951">
      <ele>411.28</ele>
      <time>1969-12-31T23:06:30Z</time>
    </trkpt>
    <trkpt lat="43.367038714" lon="12.521840064">
      <ele>411.13</ele>
      <time>1969-12-31T23:06:31Z</time>
    </trkpt>
    <trkpt lat="43.366950955" lon="12.522040391">
      <ele>412.01</ele>
      <time>1969-12-31T23:06:32Z</time>
    </trkpt>
    <trkpt lat="43.366638143" lon="12.522339793">
      <ele>414.32</ele>
      <time>1969-12-31T23:06:33Z</time>
    </trkpt>
    <trkpt lat="43.365821829" lon="12.522689821">
      <ele>416.74</ele>
      <time>1969-12-31T23:06:34Z</time>
    </trkpt>
    <trkpt lat="43.365020771" lon="12.522879587">
      <ele>417.7</ele>
      <time>1969-12-31T23:06:35Z</time>
    </trkpt>
    <trkpt lat="43.364601173" lon="12.523050327">
      <ele>417.9</ele>
      <time>1969-12-31T23:06:36Z</time>
    </trkpt>
    <trkpt lat="43.364200601" lon="12.523420304">
      <ele>418.56</ele>
      <time>1969-12-31T23:06:37Z</time>
    </trkpt>
    <trkpt lat="43.363578832" lon="12.524279617">
      <ele>421.13</ele>
      <time>1969-12-31T23:06:38Z</time>
    </trkpt>
    <trkpt lat="43.363059992" lon="12.524840366">
      <ele>422.37</ele>
      <time>1969-12-31T23:06:39Z</time>
    </trkpt>
    <trkpt lat="43.361709584" lon="12.526530242">
      <ele>428.17</ele>
      <time>1969-12-31T23:06:40Z</time>
    </trkpt>
    <trkpt lat="43.359901439" lon="12.527500112">
      <ele>426.24</ele>
      <time>1969-12-31T23:06:41Z</time>
    </trkpt>
    <trkpt lat="43.359161401" lon="12.52810956">
      <ele>427.69</ele>
      <time>1969-12-31T23:06:42Z</time>
    </trkpt>
    <trkpt lat="43.35750958" lon="12.530130353">
      <ele>431.61</ele>
      <time>1969-12-31T23:06:43Z</time>
    </trkpt>
    <trkpt lat="43.356521605" lon="12.531530382">
      <ele>434.03</ele>
      <time>1969-12-31T23:06:44Z</time>
    </trkpt>
    <trkpt lat="43.355209334" lon="12.532790182">
      <ele>436.17</ele>
      <time>1969-12-31T23:06:45Z</time>
    </trkpt>
    <trkpt lat="43.354660068" lon="12.533490155">
      <ele>435.11</ele>
      <time>1969-12-31T23:06:46Z</time>
    </trkpt>
    <trkpt lat="43.353511831" lon="12.534760516">
      <ele>438.93</ele>
      <time>1969-12-31T23:06:47Z</time>
    </trkpt>
    <trkpt lat="43.352889977" lon="12.53557968">
      <ele>441.76</ele>
      <time>1969-12-31T23:06:48Z</time>
    </trkpt>
    <trkpt lat="43.352409359" lon="12.536009755">
      <ele>442.64</ele>
      <time>1969-12-31T23:06:49Z</time>
    </trkpt>
    <trkpt lat="43.352081291" lon="12.536519961">
      <ele>441.65</ele>
      <time>1969-12-31T23:06:50Z</time>
    </trkpt>
    <trkpt lat="43.351688432" lon="12.537389752">
      <ele>439.79</ele>
      <time>1969-12-31T23:06:51Z</time>
    </trkpt>
    <trkpt lat="43.351188619" lon="12.539110221">
      <ele>442.12</ele>
      <time>1969-12-31T23:06:52Z</time>
    </trkpt>
    <trkpt lat="43.351470921" lon="12.541339891">
      <ele>443.32</ele>
      <time>1969-12-31T23:06:53Z</time>
    </trkpt>
    <trkpt lat="43.35194014" lon="12.54345037">
      <ele>446.25</ele>
      <time>1969-12-31T23:06:54Z</time>
    </trkpt>
    <trkpt lat="43.35200116" lon="12.544500371">
      <ele>446.16</ele>
      <time>1969-12-31T23:06:55Z</time>
    </trkpt>
    <trkpt lat="43.352069808" lon="12.545180311">
      <ele>446.63</ele>
      <time>1969-12-31T23:06:56Z</time>
    </trkpt>
    <trkpt lat="43.352348339" lon="12.546330476">
      <ele>449.04</ele>
      <time>1969-12-31T23:06:57Z</time>
    </trkpt>
    <trkpt lat="43.352439869" lon="12.546939841">
      <ele>449.93</ele>
      <time>1969-12-31T23:06:58Z</time>
    </trkpt>
    <trkpt lat="43.352481863" lon="12.547849696">
      <ele>451.3</ele>
      <time>1969-12-31T23:06:59Z</time>
    </trkpt>
    <trkpt lat="43.352630641" lon="12.54930974">
      <ele>454.58</ele>
      <time>1969-12-31T23:07:00Z</time>
    </trkpt>
    <trkpt lat="43.352539027" lon="12.550490415">
      <ele>456.83</ele>
      <time>1969-12-31T23:07:01Z</time>
    </trkpt>
    <trkpt lat="43.352600131" lon="12.551079746">
      <ele>457.48</ele>
      <time>1969-12-31T23:07:02Z</time>
    </trkpt>
    <trkpt lat="43.352588648" lon="12.550999615">
      <ele>457.46</ele>
      <time>1969-12-31T23:07:03Z</time>
    </trkpt>
    <trkpt lat="43.352420842" lon="12.552309958">
      <ele>458.66</ele>
      <time>1969-12-31T23:07:04Z</time>
    </trkpt>
    <trkpt lat="43.352451352" lon="12.554109553">
      <ele>458.64</ele>
      <time>1969-12-31T23:07:05Z</time>
    </trkpt>
    <trkpt lat="43.352401732" lon="12.554389928">
      <ele>458.33</ele>
      <time>1969-12-31T23:07:06Z</time>
    </trkpt>
    <trkpt lat="43.352069808" lon="12.555179587">
      <ele>458.03</ele>
      <time>1969-12-31T23:07:07Z</time>
    </trkpt>
    <trkpt lat="43.352058409" lon="12.555470439">
      <ele>458.22</ele>
      <time>1969-12-31T23:07:08Z</time>
    </trkpt>
    <trkpt lat="43.352279691" lon="12.55585961">
      <ele>458.41</ele>
      <time>1969-12-31T23:07:09Z</time>
    </trkpt>
    <trkpt lat="43.352790819" lon="12.55648993">
      <ele>459.88</ele>
      <time>1969-12-31T23:07:10Z</time>
    </trkpt>
    <trkpt lat="43.352889977" lon="12.556719761">
      <ele>460.53</ele>
      <time>1969-12-31T23:07:11Z</time>
    </trkpt>
    <trkpt lat="43.352928199" lon="12.557769762">
      <ele>462.02</ele>
      <time>1969-12-31T23:07:12Z</time>
    </trkpt>
    <trkpt lat="43.353088377" lon="12.5583601">
      <ele>462.56</ele>
      <time>1969-12-31T23:07:13Z</time>
    </trkpt>
    <trkpt lat="43.353179907" lon="12.558509801">
      <ele>462.57</ele>
      <time>1969-12-31T23:07:14Z</time>
    </trkpt>
    <trkpt lat="43.353248639" lon="12.559829699">
      <ele>464.62</ele>
      <time>1969-12-31T23:07:15Z</time>
    </trkpt>
    <trkpt lat="43.353241012" lon="12.560319873">
      <ele>465.84</ele>
      <time>1969-12-31T23:07:16Z</time>
    </trkpt>
    <trkpt lat="43.353279149" lon="12.560770065">
      <ele>466.81</ele>
      <time>1969-12-31T23:07:17Z</time>
    </trkpt>
    <trkpt lat="43.35314177" lon="12.561659804">
      <ele>468.75</ele>
      <time>1969-12-31T23:07:18Z</time>
    </trkpt>
    <trkpt lat="43.353118887" lon="12.562600169">
      <ele>470.33</ele>
      <time>1969-12-31T23:07:19Z</time>
    </trkpt>
    <trkpt lat="43.352859467" lon="12.563909506">
      <ele>473.88</ele>
      <time>1969-12-31T23:07:20Z</time>
    </trkpt>
    <trkpt lat="43.35284044" lon="12.564519877">
      <ele>477.02</ele>
      <time>1969-12-31T23:07:21Z</time>
    </trkpt>
    <trkpt lat="43.352901461" lon="12.565489747">
      <ele>478.98</ele>
      <time>1969-12-31T23:07:22Z</time>
    </trkpt>
    <trkpt lat="43.35306935" lon="12.566530192">
      <ele>480.16</ele>
      <time>1969-12-31T23:07:23Z</time>
    </trkpt>
    <trkpt lat="43.352981592" lon="12.566430112">
      <ele>479.75</ele>
      <time>1969-12-31T23:07:24Z</time>
    </trkpt>
    <trkpt lat="43.35277942" lon="12.566769579">
      <ele>480.18</ele>
      <time>1969-12-31T23:07:25Z</time>
    </trkpt>
    <trkpt lat="43.352100402" lon="12.567580193">
      <ele>481.45</ele>
      <time>1969-12-31T23:07:26Z</time>
    </trkpt>
    <trkpt lat="43.3516197" lon="12.568110432">
      <ele>481.72</ele>
      <time>1969-12-31T23:07:27Z</time>
    </trkpt>
    <trkpt lat="43.35097882" lon="12.569029843">
      <ele>482.02</ele>
      <time>1969-12-31T23:07:28Z</time>
    </trkpt>
    <trkpt lat="43.35068889" lon="12.569439886">
      <ele>482.65</ele>
      <time>1969-12-31T23:07:29Z</time>
    </trkpt>
    <trkpt lat="43.350681262" lon="12.569549521">
      <ele>482.66</ele>
      <time>1969-12-31T23:07:30Z</time>
    </trkpt>
    <trkpt lat="43.350860635" lon="12.56986049">
      <ele>482.4</ele>
      <time>1969-12-31T23:07:31Z</time>
    </trkpt>
    <trkpt lat="43.35168072" lon="12.570630033">
      <ele>486.45</ele>
      <time>1969-12-31T23:07:32Z</time>
    </trkpt>
    <trkpt lat="43.353118887" lon="12.571789753">
      <ele>493.12</ele>
      <time>1969-12-31T23:07:33Z</time>
    </trkpt>
    <trkpt lat="43.353820788" lon="12.572979899">
      <ele>496.81</ele>
      <time>1969-12-31T23:07:34Z</time>
    </trkpt>
    <trkpt lat="43.353900919" lon="12.573229764">
      <ele>498.53</ele>
      <time>1969-12-31T23:07:35Z</time>
    </trkpt>
    <trkpt lat="43.353870409" lon="12.573340405">
      <ele>499.1</ele>
      <time>1969-12-31T23:07:36Z</time>
    </trkpt>
    <trkpt lat="43.353241012" lon="12.574000396">
      <ele>500.89</ele>
      <time>1969-12-31T23:07:37Z</time>
    </trkpt>
    <trkpt lat="43.35287095" lon="12.574290242">
      <ele>499.68</ele>
      <time>1969-12-31T23:07:38Z</time>
    </trkpt>
    <trkpt lat="43.352268208" lon="12.574620238">
      <ele>496.46</ele>
      <time>1969-12-31T23:07:39Z</time>
    </trkpt>
    <trkpt lat="43.352119429" lon="12.574749989">
      <ele>496.29</ele>
      <time>1969-12-31T23:07:40Z</time>
    </trkpt>
    <trkpt lat="43.351699831" lon="12.574950233">
      <ele>494.78</ele>
      <time>1969-12-31T23:07:41Z</time>
    </trkpt>
    <trkpt lat="43.351291632" lon="12.575249635">
      <ele>493.44</ele>
      <time>1969-12-31T23:07:42Z</time>
    </trkpt>
    <trkpt lat="43.350849152" lon="12.575819939">
      <ele>490.56</ele>
      <time>1969-12-31T23:07:43Z</time>
    </trkpt>
    <trkpt lat="43.350490574" lon="12.576780338">
      <ele>489.34</ele>
      <time>1969-12-31T23:07:44Z</time>
    </trkpt>
    <trkpt lat="43.350360906" lon="12.576910006">
      <ele>489.13</ele>
      <time>1969-12-31T23:07:45Z</time>
    </trkpt>
    <trkpt lat="43.349540737" lon="12.576959627">
      <ele>488.26</ele>
      <time>1969-12-31T23:07:46Z</time>
    </trkpt>
    <trkpt lat="43.349128682" lon="12.576959627">
      <ele>486.37</ele>
      <time>1969-12-31T23:07:47Z</time>
    </trkpt>
    <trkpt lat="43.348419154" lon="12.57701017">
      <ele>483.68</ele>
      <time>1969-12-31T23:07:48Z</time>
    </trkpt>
    <trkpt lat="43.348258976" lon="12.577030202">
      <ele>483.38</ele>
      <time>1969-12-31T23:07:49Z</time>
    </trkpt>
    <trkpt lat="43.347919425" lon="12.57705979">
      <ele>482.19</ele>
      <time>1969-12-31T23:07:50Z</time>
    </trkpt>
    <trkpt lat="43.347579958" lon="12.577150315">
      <ele>480.52</ele>
      <time>1969-12-31T23:07:51Z</time>
    </trkpt>
    <trkpt lat="43.346981071" lon="12.577099772">
      <ele>478.04</ele>
      <time>1969-12-31T23:07:52Z</time>
    </trkpt>
    <trkpt lat="43.346721651" lon="12.576999692">
      <ele>477.23</ele>
      <time>1969-12-31T23:07:53Z</time>
    </trkpt>
    <trkpt lat="43.34626006" lon="12.576860469">
      <ele>475.24</ele>
      <time>1969-12-31T23:07:54Z</time>
    </trkpt>
    <trkpt lat="43.34601975" lon="12.576749828">
      <ele>473.97</ele>
      <time>1969-12-31T23:07:55Z</time>
    </trkpt>
    <trkpt lat="43.345401753" lon="12.576519996">
      <ele>471.34</ele>
      <time>1969-12-31T23:07:56Z</time>
    </trkpt>
    <trkpt lat="43.344459543" lon="12.576169968">
      <ele>469.0</ele>
      <time>1969-12-31T23:07:57Z</time>
    </trkpt>
    <trkpt lat="43.344398523" lon="12.5760403">
      <ele>468.92</ele>
      <time>1969-12-31T23:07:58Z</time>
    </trkpt>
    <trkpt lat="43.34447857" lon="12.575699827">
      <ele>468.83</ele>
      <time>1969-12-31T23:07:59Z</time>
    </trkpt>
    <trkpt lat="43.344249744" lon="12.57561014">
      <ele>468.43</ele>
      <time>1969-12-31T23:08:00Z</time>
    </trkpt>
  </trkseg>
</trk>
<trk>
  <name>Variante 1</name>
  <trkseg>
    <trkpt lat="43.427909855" lon="12.471830361">
      <ele>515.45</ele>
      <time>1969-12-31T23:08:01Z</time>
    </trkpt>
    <trkpt lat="43.427837351" lon="12.471982995">
      <ele>517.0</ele>
      <time>1969-12-31T23:08:02Z</time>
    </trkpt>
    <trkpt lat="43.427837351" lon="12.47207067">
      <ele>518.13</ele>
      <time>1969-12-31T23:08:03Z</time>
    </trkpt>
    <trkpt lat="43.427547421" lon="12.471918119">
      <ele>519.94</ele>
      <time>1969-12-31T23:08:04Z</time>
    </trkpt>
    <trkpt lat="43.427253719" lon="12.471640594">
      <ele>521.19</ele>
      <time>1969-12-31T23:08:05Z</time>
    </trkpt>
    <trkpt lat="43.426639577" lon="12.471069368">
      <ele>523.78</ele>
      <time>1969-12-31T23:08:06Z</time>
    </trkpt>
    <trkpt lat="43.426422151" lon="12.470769882">
      <ele>525.93</ele>
      <time>1969-12-31T23:08:07Z</time>
    </trkpt>
    <trkpt lat="43.42620464" lon="12.470376939">
      <ele>527.81</ele>
      <time>1969-12-31T23:08:08Z</time>
    </trkpt>
    <trkpt lat="43.426063573" lon="12.469955413">
      <ele>528.52</ele>
      <time>1969-12-31T23:08:09Z</time>
    </trkpt>
    <trkpt lat="43.425891912" lon="12.469598763">
      <ele>531.08</ele>
      <time>1969-12-31T23:08:10Z</time>
    </trkpt>
    <trkpt lat="43.425495112" lon="12.468936006">
      <ele>535.57</ele>
      <time>1969-12-31T23:08:11Z</time>
    </trkpt>
    <trkpt lat="43.4251709" lon="12.468792927">
      <ele>538.82</ele>
      <time>1969-12-31T23:08:12Z</time>
    </trkpt>
    <trkpt lat="43.424873343" lon="12.468591677">
      <ele>540.92</ele>
      <time>1969-12-31T23:08:13Z</time>
    </trkpt>
    <trkpt lat="43.424598668" lon="12.468273165">
      <ele>540.58</ele>
      <time>1969-12-31T23:08:14Z</time>
    </trkpt>
    <trkpt lat="43.424354587" lon="12.467935542">
      <ele>539.53</ele>
      <time>1969-12-31T23:08:15Z</time>
    </trkpt>
    <trkpt lat="43.424053174" lon="12.467781985">
      <ele>541.44</ele>
      <time>1969-12-31T23:08:16Z</time>
    </trkpt>
    <trkpt lat="43.423770871" lon="12.467858344">
      <ele>545.94</ele>
      <time>1969-12-31T23:08:17Z</time>
    </trkpt>
    <trkpt lat="43.423461914" lon="12.46789841">
      <ele>550.45</ele>
      <time>1969-12-31T23:08:18Z</time>
    </trkpt>
    <trkpt lat="43.423168212" lon="12.467939397">
      <ele>557.25</ele>
      <time>1969-12-31T23:08:19Z</time>
    </trkpt>
    <trkpt lat="43.422954557" lon="12.468003267">
      <ele>562.48</ele>
      <time>1969-12-31T23:08:20Z</time>
    </trkpt>
    <trkpt lat="43.422729503" lon="12.467787769">
      <ele>564.57</ele>
      <time>1969-12-31T23:08:21Z</time>
    </trkpt>
    <trkpt lat="43.422710393" lon="12.467403375">
      <ele>565.79</ele>
      <time>1969-12-31T23:08:22Z</time>
    </trkpt>
    <trkpt lat="43.422733275" lon="12.46705913">
      <ele>565.81</ele>
      <time>1969-12-31T23:08:23Z</time>
    </trkpt>
    <trkpt lat="43.422863027" lon="12.466682447">
      <ele>562.41</ele>
      <time>1969-12-31T23:08:24Z</time>
    </trkpt>
    <trkpt lat="43.423053715" lon="12.465889938">
      <ele>558.49</ele>
      <time>1969-12-31T23:08:25Z</time>
    </trkpt>
    <trkpt lat="43.423061343" lon="12.465579053">
      <ele>557.91</ele>
      <time>1969-12-31T23:08:26Z</time>
    </trkpt>
    <trkpt lat="43.423114819" lon="12.465286274">
      <ele>555.73</ele>
      <time>1969-12-31T23:08:27Z</time>
    </trkpt>
    <trkpt lat="43.423126219" lon="12.465156522">
      <ele>555.17</ele>
      <time>1969-12-31T23:08:28Z</time>
    </trkpt>
    <trkpt lat="43.423126219" lon="12.464750251">
      <ele>553.43</ele>
      <time>1969-12-31T23:08:29Z</time>
    </trkpt>
    <trkpt lat="43.422832517" lon="12.464623433">
      <ele>557.87</ele>
      <time>1969-12-31T23:08:30Z</time>
    </trkpt>
    <trkpt lat="43.422515849" lon="12.464616811">
      <ele>558.35</ele>
      <time>1969-12-31T23:08:31Z</time>
    </trkpt>
    <trkpt lat="43.42232516" lon="12.464353535">
      <ele>556.12</ele>
      <time>1969-12-31T23:08:32Z</time>
    </trkpt>
    <trkpt lat="43.422176382" lon="12.46396252">
      <ele>553.89</ele>
      <time>1969-12-31T23:08:33Z</time>
    </trkpt>
    <trkpt lat="43.421894079" lon="12.463677451">
      <ele>554.32</ele>
      <time>1969-12-31T23:08:34Z</time>
    </trkpt>
    <trkpt lat="43.421600377" lon="12.463485757">
      <ele>554.93</ele>
      <time>1969-12-31T23:08:35Z</time>
    </trkpt>
    <trkpt lat="43.420932759" lon="12.46337126">
      <ele>559.82</ele>
      <time>1969-12-31T23:08:36Z</time>
    </trkpt>
    <trkpt lat="43.420627574" lon="12.463079486">
      <ele>558.15</ele>
      <time>1969-12-31T23:08:37Z</time>
    </trkpt>
    <trkpt lat="43.420322388" lon="12.462919224">
      <ele>557.59</ele>
      <time>1969-12-31T23:08:38Z</time>
    </trkpt>
    <trkpt lat="43.419246655" lon="12.462964989">
      <ele>561.63</ele>
      <time>1969-12-31T23:08:39Z</time>
    </trkpt>
    <trkpt lat="43.418918587" lon="12.462927857">
      <ele>561.08</ele>
      <time>1969-12-31T23:08:40Z</time>
    </trkpt>
    <trkpt lat="43.418628657" lon="12.463070853">
      <ele>562.45</ele>
      <time>1969-12-31T23:08:41Z</time>
    </trkpt>
    <trkpt lat="43.418411231" lon="12.463430436">
      <ele>565.85</ele>
      <time>1969-12-31T23:08:42Z</time>
    </trkpt>
    <trkpt lat="43.418148039" lon="12.463720283">
      <ele>569.63</ele>
      <time>1969-12-31T23:08:43Z</time>
    </trkpt>
    <trkpt lat="43.417957351" lon="12.463846179">
      <ele>571.66</ele>
      <time>1969-12-31T23:08:44Z</time>
    </trkpt>
    <trkpt lat="43.417610172" lon="12.463807119">
      <ele>571.96</ele>
      <time>1969-12-31T23:08:45Z</time>
    </trkpt>
    <trkpt lat="43.417228712" lon="12.463645935">
      <ele>571.82</ele>
      <time>1969-12-31T23:08:46Z</time>
    </trkpt>
    <trkpt lat="43.416461935" lon="12.463323567">
      <ele>568.96</ele>
      <time>1969-12-31T23:08:47Z</time>
    </trkpt>
    <trkpt lat="43.416240653" lon="12.463396071">
      <ele>567.8</ele>
      <time>1969-12-31T23:08:48Z</time>
    </trkpt>
    <trkpt lat="43.416072847" lon="12.463808041">
      <ele>570.76</ele>
      <time>1969-12-31T23:08:49Z</time>
    </trkpt>
    <trkpt lat="43.415996572" lon="12.464298215">
      <ele>576.58</ele>
      <time>1969-12-31T23:08:50Z</time>
    </trkpt>
    <trkpt lat="43.415901186" lon="12.4647961">
      <ele>586.05</ele>
      <time>1969-12-31T23:08:51Z</time>
    </trkpt>
    <trkpt lat="43.415683759" lon="12.465127939">
      <ele>593.38</ele>
      <time>1969-12-31T23:08:52Z</time>
    </trkpt>
    <trkpt lat="43.415431967" lon="12.465194659">
      <ele>593.7</ele>
      <time>1969-12-31T23:08:53Z</time>
    </trkpt>
    <trkpt lat="43.415264161" lon="12.464969605">
      <ele>589.68</ele>
      <time>1969-12-31T23:08:54Z</time>
    </trkpt>
    <trkpt lat="43.415019996" lon="12.464697864">
      <ele>585.6</ele>
      <time>1969-12-31T23:08:55Z</time>
    </trkpt>
    <trkpt lat="43.414653791" lon="12.464740779">
      <ele>582.38</ele>
      <time>1969-12-31T23:08:56Z</time>
    </trkpt>
    <trkpt lat="43.414340978" lon="12.465111762">
      <ele>582.13</ele>
      <time>1969-12-31T23:08:57Z</time>
    </trkpt>
    <trkpt lat="43.414215082" lon="12.465415942">
      <ele>584.15</ele>
      <time>1969-12-31T23:08:58Z</time>
    </trkpt>
    <trkpt lat="43.413948035" lon="12.465526583">
      <ele>583.71</ele>
      <time>1969-12-31T23:08:59Z</time>
    </trkpt>
    <trkpt lat="43.413593313" lon="12.465612413">
      <ele>582.59</ele>
      <time>1969-12-31T23:09:00Z</time>
    </trkpt>
    <trkpt lat="43.413253762" lon="12.465694388">
      <ele>582.45</ele>
      <time>1969-12-31T23:09:01Z</time>
    </trkpt>
    <trkpt lat="43.41289904" lon="12.465782147">
      <ele>582.82</ele>
      <time>1969-12-31T23:09:02Z</time>
    </trkpt>
    <trkpt lat="43.412620509" lon="12.46586035">
      <ele>583.19</ele>
      <time>1969-12-31T23:09:03Z</time>
    </trkpt>
    <trkpt lat="43.41233829" lon="12.465952886">
      <ele>583.63</ele>
      <time>1969-12-31T23:09:04Z</time>
    </trkpt>
    <trkpt lat="43.411983484" lon="12.466057744">
      <ele>583.3</ele>
      <time>1969-12-31T23:09:05Z</time>
    </trkpt>
    <trkpt lat="43.411670672" lon="12.466161763">
      <ele>584.94</ele>
      <time>1969-12-31T23:09:06Z</time>
    </trkpt>
    <trkpt lat="43.411411252" lon="12.466242816">
      <ele>586.71</ele>
      <time>1969-12-31T23:09:07Z</time>
    </trkpt>
    <trkpt lat="43.411060302" lon="12.466337197">
      <ele>587.5</ele>
      <time>1969-12-31T23:09:08Z</time>
    </trkpt>
    <trkpt lat="43.410686469" lon="12.466431661">
      <ele>587.23</ele>
      <time>1969-12-31T23:09:09Z</time>
    </trkpt>
    <trkpt lat="43.410274498" lon="12.466545068">
      <ele>584.94</ele>
      <time>1969-12-31T23:09:10Z</time>
    </trkpt>
    <trkpt lat="43.409923548" lon="12.466715807">
      <ele>582.34</ele>
      <time>1969-12-31T23:09:11Z</time>
    </trkpt>
    <trkpt lat="43.409767142" lon="12.46673299">
      <ele>580.78</ele>
      <time>1969-12-31T23:09:12Z</time>
    </trkpt>
    <trkpt lat="43.409778625" lon="12.466739612">
      <ele>580.93</ele>
      <time>1969-12-31T23:09:13Z</time>
    </trkpt>
    <trkpt lat="43.409778625" lon="12.466726284">
      <ele>580.85</ele>
      <time>1969-12-31T23:09:14Z</time>
    </trkpt>
    <trkpt lat="43.409770997" lon="12.466731062">
      <ele>580.8</ele>
      <time>1969-12-31T23:09:15Z</time>
    </trkpt>
    <trkpt lat="43.409740487" lon="12.466756795">
      <ele>580.67</ele>
      <time>1969-12-31T23:09:16Z</time>
    </trkpt>
    <trkpt lat="43.409416191" lon="12.4667578">
      <ele>577.55</ele>
      <time>1969-12-31T23:09:17Z</time>
    </trkpt>
    <trkpt lat="43.409069097" lon="12.466684375">
      <ele>574.25</ele>
      <time>1969-12-31T23:09:18Z</time>
    </trkpt>
    <trkpt lat="43.408714291" lon="12.466633832">
      <ele>572.95</ele>
      <time>1969-12-31T23:09:19Z</time>
    </trkpt>
    <trkpt lat="43.40834423" lon="12.466611871">
      <ele>571.51</ele>
      <time>1969-12-31T23:09:20Z</time>
    </trkpt>
    <trkpt lat="43.408027645" lon="12.466618577">
      <ele>569.8</ele>
      <time>1969-12-31T23:09:21Z</time>
    </trkpt>
    <trkpt lat="43.407745343" lon="12.466612794">
      <ele>568.28</ele>
      <time>1969-12-31T23:09:22Z</time>
    </trkpt>
    <trkpt lat="43.40740202" lon="12.466562251">
      <ele>566.03</ele>
      <time>1969-12-31T23:09:23Z</time>
    </trkpt>
    <trkpt lat="43.40711209" lon="12.466483125">
      <ele>564.09</ele>
      <time>1969-12-31T23:09:24Z</time>
    </trkpt>
    <trkpt lat="43.406837499" lon="12.466389667">
      <ele>562.59</ele>
      <time>1969-12-31T23:09:25Z</time>
    </trkpt>
    <trkpt lat="43.406467438" lon="12.466247594">
      <ele>561.04</ele>
      <time>1969-12-31T23:09:26Z</time>
    </trkpt>
    <trkpt lat="43.406181363" lon="12.466143575">
      <ele>559.84</ele>
      <time>1969-12-31T23:09:27Z</time>
    </trkpt>
    <trkpt lat="43.405845668" lon="12.465990102">
      <ele>558.68</ele>
      <time>1969-12-31T23:09:28Z</time>
    </trkpt>
    <trkpt lat="43.405494718" lon="12.465820285">
      <ele>557.97</ele>
      <time>1969-12-31T23:09:29Z</time>
    </trkpt>
    <trkpt lat="43.405113257" lon="12.465613335">
      <ele>556.77</ele>
      <time>1969-12-31T23:09:30Z</time>
    </trkpt>
    <trkpt lat="43.404777562" lon="12.465410242">
      <ele>555.3</ele>
      <time>1969-12-31T23:09:31Z</time>
    </trkpt>
    <trkpt lat="43.404438011" lon="12.465159455">
      <ele>551.72</ele>
      <time>1969-12-31T23:09:32Z</time>
    </trkpt>
    <trkpt lat="43.404113799" lon="12.464844715">
      <ele>548.68</ele>
      <time>1969-12-31T23:09:33Z</time>
    </trkpt>
    <trkpt lat="43.403793359" lon="12.464554785">
      <ele>544.9</ele>
      <time>1969-12-31T23:09:34Z</time>
    </trkpt>
    <trkpt lat="43.403465291" lon="12.464343058">
      <ele>541.79</ele>
      <time>1969-12-31T23:09:35Z</time>
    </trkpt>
    <trkpt lat="43.403118113" lon="12.464175252">
      <ele>537.69</ele>
      <time>1969-12-31T23:09:36Z</time>
    </trkpt>
    <trkpt lat="43.402843522" lon="12.46404835">
      <ele>534.2</ele>
      <time>1969-12-31T23:09:37Z</time>
    </trkpt>
    <trkpt lat="43.402519226" lon="12.463969225">
      <ele>529.99</ele>
      <time>1969-12-31T23:09:38Z</time>
    </trkpt>
    <trkpt lat="43.402202642" lon="12.46418573">
      <ele>527.2</ele>
      <time>1969-12-31T23:09:39Z</time>
    </trkpt>
    <trkpt lat="43.401878346" lon="12.464367868">
      <ele>523.59</ele>
      <time>1969-12-31T23:09:40Z</time>
    </trkpt>
    <trkpt lat="43.401557906" lon="12.464400306">
      <ele>518.57</ele>
      <time>1969-12-31T23:09:41Z</time>
    </trkpt>
    <trkpt lat="43.401302341" lon="12.464621505">
      <ele>514.6</ele>
      <time>1969-12-31T23:09:42Z</time>
    </trkpt>
    <trkpt lat="43.401073432" lon="12.464902885">
      <ele>511.55</ele>
      <time>1969-12-31T23:09:43Z</time>
    </trkpt>
    <trkpt lat="43.400894143" lon="12.4651442">
      <ele>509.03</ele>
      <time>1969-12-31T23:09:44Z</time>
    </trkpt>
    <trkpt lat="43.400699599" lon="12.465434046">
      <ele>506.27</ele>
      <time>1969-12-31T23:09:45Z</time>
    </trkpt>
    <trkpt lat="43.400512682" lon="12.465683911">
      <ele>503.81</ele>
      <time>1969-12-31T23:09:46Z</time>
    </trkpt>
    <trkpt lat="43.400363903" lon="12.465940481">
      <ele>501.94</ele>
      <time>1969-12-31T23:09:47Z</time>
    </trkpt>
    <trkpt lat="43.400123594" lon="12.466245666">
      <ele>498.3</ele>
      <time>1969-12-31T23:09:48Z</time>
    </trkpt>
    <trkpt lat="43.400089229" lon="12.466236111">
      <ele>497.37</ele>
      <time>1969-12-31T23:09:49Z</time>
    </trkpt>
    <trkpt lat="43.400051091" lon="12.466135947">
      <ele>495.52</ele>
      <time>1969-12-31T23:09:50Z</time>
    </trkpt>
    <trkpt lat="43.400051091" lon="12.466075933">
      <ele>494.97</ele>
      <time>1969-12-31T23:09:51Z</time>
    </trkpt>
    <trkpt lat="43.40015796" lon="12.465703022">
      <ele>494.48</ele>
      <time>1969-12-31T23:09:52Z</time>
    </trkpt>
    <trkpt lat="43.400161732" lon="12.465302451">
      <ele>492.31</ele>
      <time>1969-12-31T23:09:53Z</time>
    </trkpt>
    <trkpt lat="43.400047319" lon="12.464970611">
      <ele>488.41</ele>
      <time>1969-12-31T23:09:54Z</time>
    </trkpt>
    <trkpt lat="43.399829892" lon="12.464707335">
      <ele>482.28</ele>
      <time>1969-12-31T23:09:55Z</time>
    </trkpt>
    <trkpt lat="43.399551362" lon="12.464721669">
      <ele>475.45</ele>
      <time>1969-12-31T23:09:56Z</time>
    </trkpt>
    <trkpt lat="43.399433177" lon="12.465000115">
      <ele>473.05</ele>
      <time>1969-12-31T23:09:57Z</time>
    </trkpt>
    <trkpt lat="43.3993797" lon="12.465295829">
      <ele>472.33</ele>
      <time>1969-12-31T23:09:58Z</time>
    </trkpt>
    <trkpt lat="43.399242405" lon="12.465715427">
      <ele>473.4</ele>
      <time>1969-12-31T23:09:59Z</time>
    </trkpt>
    <trkpt lat="43.399036378" lon="12.465940481">
      <ele>472.93</ele>
      <time>1969-12-31T23:10:00Z</time>
    </trkpt>
    <trkpt lat="43.398765558" lon="12.466106443">
      <ele>470.77</ele>
      <time>1969-12-31T23:10:01Z</time>
    </trkpt>
    <trkpt lat="43.398513766" lon="12.466212306">
      <ele>468.09</ele>
      <time>1969-12-31T23:10:02Z</time>
    </trkpt>
    <trkpt lat="43.398239175" lon="12.466368712">
      <ele>465.95</ele>
      <time>1969-12-31T23:10:03Z</time>
    </trkpt>
    <trkpt lat="43.398021664" lon="12.466541296">
      <ele>464.04</ele>
      <time>1969-12-31T23:10:04Z</time>
    </trkpt>
    <trkpt lat="43.397781355" lon="12.466736762">
      <ele>461.52</ele>
      <time>1969-12-31T23:10:05Z</time>
    </trkpt>
    <trkpt lat="43.397556301" lon="12.466898952">
      <ele>458.62</ele>
      <time>1969-12-31T23:10:06Z</time>
    </trkpt>
    <trkpt lat="43.397285482" lon="12.46712585">
      <ele>458.11</ele>
      <time>1969-12-31T23:10:07Z</time>
    </trkpt>
    <trkpt lat="43.397106193" lon="12.467474956">
      <ele>454.59</ele>
      <time>1969-12-31T23:10:08Z</time>
    </trkpt>
    <trkpt lat="43.396984069" lon="12.467993712">
      <ele>443.05</ele>
      <time>1969-12-31T23:10:09Z</time>
    </trkpt>
    <trkpt lat="43.396957414" lon="12.468446754">
      <ele>434.49</ele>
      <time>1969-12-31T23:10:10Z</time>
    </trkpt>
    <trkpt lat="43.397029918" lon="12.468870124">
      <ele>429.15</ele>
      <time>1969-12-31T23:10:11Z</time>
    </trkpt>
    <trkpt lat="43.397197723" lon="12.469159132">
      <ele>427.15</ele>
      <time>1969-12-31T23:10:12Z</time>
    </trkpt>
    <trkpt lat="43.397438033" lon="12.469394663">
      <ele>427.83</ele>
      <time>1969-12-31T23:10:13Z</time>
    </trkpt>
    <trkpt lat="43.397441888" lon="12.469407069">
      <ele>427.8</ele>
      <time>1969-12-31T23:10:14Z</time>
    </trkpt>
    <trkpt lat="43.397357902" lon="12.469525337">
      <ele>426.14</ele>
      <time>1969-12-31T23:10:15Z</time>
    </trkpt>
    <trkpt lat="43.397289254" lon="12.469512932">
      <ele>425.44</ele>
      <time>1969-12-31T23:10:16Z</time>
    </trkpt>
    <trkpt lat="43.39718624" lon="12.469429951">
      <ele>424.55</ele>
      <time>1969-12-31T23:10:17Z</time>
    </trkpt>
    <trkpt lat="43.397041317" lon="12.469309838">
      <ele>422.89</ele>
      <time>1969-12-31T23:10:18Z</time>
    </trkpt>
    <trkpt lat="43.396820035" lon="12.469038013">
      <ele>423.19</ele>
      <time>1969-12-31T23:10:19Z</time>
    </trkpt>
    <trkpt lat="43.396675112" lon="12.468936928">
      <ele>423.11</ele>
      <time>1969-12-31T23:10:20Z</time>
    </trkpt>
    <trkpt lat="43.396541588" lon="12.46889309">
      <ele>422.65</ele>
      <time>1969-12-31T23:10:21Z</time>
    </trkpt>
    <trkpt lat="43.396404292" lon="12.468884457">
      <ele>421.64</ele>
      <time>1969-12-31T23:10:22Z</time>
    </trkpt>
    <trkpt lat="43.396255514" lon="12.468913039">
      <ele>420.0</ele>
      <time>1969-12-31T23:10:23Z</time>
    </trkpt>
    <trkpt lat="43.396171611" lon="12.468982693">
      <ele>418.33</ele>
      <time>1969-12-31T23:10:24Z</time>
    </trkpt>
    <trkpt lat="43.396129617" lon="12.469091406">
      <ele>416.46</ele>
      <time>1969-12-31T23:10:25Z</time>
    </trkpt>
    <trkpt lat="43.396137245" lon="12.469240185">
      <ele>414.8</ele>
      <time>1969-12-31T23:10:26Z</time>
    </trkpt>
    <trkpt lat="43.396202121" lon="12.469391814">
      <ele>416.3</ele>
      <time>1969-12-31T23:10:27Z</time>
    </trkpt>
    <trkpt lat="43.396266913" lon="12.469470017">
      <ele>417.17</ele>
      <time>1969-12-31T23:10:28Z</time>
    </trkpt>
    <trkpt lat="43.396289796" lon="12.469618795">
      <ele>418.24</ele>
      <time>1969-12-31T23:10:29Z</time>
    </trkpt>
    <trkpt lat="43.396286024" lon="12.469711332">
      <ele>418.81</ele>
      <time>1969-12-31T23:10:30Z</time>
    </trkpt>
    <trkpt lat="43.396255514" lon="12.469820967">
      <ele>419.44</ele>
      <time>1969-12-31T23:10:31Z</time>
    </trkpt>
    <trkpt lat="43.396198265" lon="12.469910653">
      <ele>419.92</ele>
      <time>1969-12-31T23:10:32Z</time>
    </trkpt>
    <trkpt lat="43.395397207" lon="12.470531501">
      <ele>431.67</ele>
      <time>1969-12-31T23:10:33Z</time>
    </trkpt>
    <trkpt lat="43.395118676" lon="12.470756555">
      <ele>435.89</ele>
      <time>1969-12-31T23:10:34Z</time>
    </trkpt>
    <trkpt lat="43.394367239" lon="12.47154613">
      <ele>448.23</ele>
      <time>1969-12-31T23:10:35Z</time>
    </trkpt>
    <trkpt lat="43.393775979" lon="12.472234704">
      <ele>448.44</ele>
      <time>1969-12-31T23:10:36Z</time>
    </trkpt>
    <trkpt lat="43.393486049" lon="12.472496051">
      <ele>452.55</ele>
      <time>1969-12-31T23:10:37Z</time>
    </trkpt>
    <trkpt lat="43.393360153" lon="12.472599987">
      <ele>453.82</ele>
      <time>1969-12-31T23:10:38Z</time>
    </trkpt>
    <trkpt lat="43.393260995" lon="12.472835518">
      <ele>456.03</ele>
      <time>1969-12-31T23:10:39Z</time>
    </trkpt>
    <trkpt lat="43.393211374" lon="12.473054873">
      <ele>457.83</ele>
      <time>1969-12-31T23:10:40Z</time>
    </trkpt>
    <trkpt lat="43.393192263" lon="12.473312365">
      <ele>459.81</ele>
      <time>1969-12-31T23:10:41Z</time>
    </trkpt>
    <trkpt lat="43.393188491" lon="12.473460222">
      <ele>460.96</ele>
      <time>1969-12-31T23:10:42Z</time>
    </trkpt>
    <trkpt lat="43.393272394" lon="12.473706231">
      <ele>462.56</ele>
      <time>1969-12-31T23:10:43Z</time>
    </trkpt>
    <trkpt lat="43.393322015" lon="12.473894153">
      <ele>463.59</ele>
      <time>1969-12-31T23:10:44Z</time>
    </trkpt>
    <trkpt lat="43.393356297" lon="12.474044776">
      <ele>464.45</ele>
      <time>1969-12-31T23:10:45Z</time>
    </trkpt>
    <trkpt lat="43.393363925" lon="12.47426698">
      <ele>466.39</ele>
      <time>1969-12-31T23:10:46Z</time>
    </trkpt>
    <trkpt lat="43.393360153" lon="12.474433864">
      <ele>467.91</ele>
      <time>1969-12-31T23:10:47Z</time>
    </trkpt>
    <trkpt lat="43.393302904" lon="12.474541655">
      <ele>469.22</ele>
      <time>1969-12-31T23:10:48Z</time>
    </trkpt>
    <trkpt lat="43.393215146" lon="12.474684734">
      <ele>471.03</ele>
      <time>1969-12-31T23:10:49Z</time>
    </trkpt>
    <trkpt lat="43.393135099" lon="12.474772409">
      <ele>472.3</ele>
      <time>1969-12-31T23:10:50Z</time>
    </trkpt>
    <trkpt lat="43.39295581" lon="12.474836363">
      <ele>473.62</ele>
      <time>1969-12-31T23:10:51Z</time>
    </trkpt>
    <trkpt lat="43.3927269" lon="12.474842062">
      <ele>472.59</ele>
      <time>1969-12-31T23:10:52Z</time>
    </trkpt>
    <trkpt lat="43.392551383" lon="12.474831585">
      <ele>471.67</ele>
      <time>1969-12-31T23:10:53Z</time>
    </trkpt>
    <trkpt lat="43.392204288" lon="12.475108188">
      <ele>471.88</ele>
      <time>1969-12-31T23:10:54Z</time>
    </trkpt>
    <trkpt lat="43.391563408" lon="12.47571948">
      <ele>470.6</ele>
      <time>1969-12-31T23:10:55Z</time>
    </trkpt>
    <trkpt lat="43.391063679" lon="12.476227758">
      <ele>466.81</ele>
      <time>1969-12-31T23:10:56Z</time>
    </trkpt>
    <trkpt lat="43.391021769" lon="12.476281151">
      <ele>466.54</ele>
      <time>1969-12-31T23:10:57Z</time>
    </trkpt>
    <trkpt lat="43.390922528" lon="12.47642423">
      <ele>466.02</ele>
      <time>1969-12-31T23:10:58Z</time>
    </trkpt>
    <trkpt lat="43.390483819" lon="12.47700979">
      <ele>465.33</ele>
      <time>1969-12-31T23:10:59Z</time>
    </trkpt>
    <trkpt lat="43.390117614" lon="12.477507591">
      <ele>466.05</ele>
      <time>1969-12-31T23:11:00Z</time>
    </trkpt>
    <trkpt lat="43.389736153" lon="12.478096923">
      <ele>466.82</ele>
      <time>1969-12-31T23:11:01Z</time>
    </trkpt>
    <trkpt lat="43.389198286" lon="12.478898987">
      <ele>465.2</ele>
      <time>1969-12-31T23:11:02Z</time>
    </trkpt>
    <trkpt lat="43.389099129" lon="12.479060171">
      <ele>464.91</ele>
      <time>1969-12-31T23:11:03Z</time>
    </trkpt>
    <trkpt lat="43.38875195" lon="12.479411121">
      <ele>462.33</ele>
      <time>1969-12-31T23:11:04Z</time>
    </trkpt>
    <trkpt lat="43.38867953" lon="12.47949888">
      <ele>461.69</ele>
      <time>1969-12-31T23:11:05Z</time>
    </trkpt>
    <trkpt lat="43.388610799" lon="12.479551351">
      <ele>460.98</ele>
      <time>1969-12-31T23:11:06Z</time>
    </trkpt>
    <trkpt lat="43.388439221" lon="12.479765927">
      <ele>459.21</ele>
      <time>1969-12-31T23:11:07Z</time>
    </trkpt>
    <trkpt lat="43.388175946" lon="12.480072957">
      <ele>456.02</ele>
      <time>1969-12-31T23:11:08Z</time>
    </trkpt>
    <trkpt lat="43.387966147" lon="12.480328521">
      <ele>452.77</ele>
      <time>1969-12-31T23:11:09Z</time>
    </trkpt>
    <trkpt lat="43.387763975" lon="12.480678549">
      <ele>448.75</ele>
      <time>1969-12-31T23:11:10Z</time>
    </trkpt>
    <trkpt lat="43.387603797" lon="12.481097225">
      <ele>446.32</ele>
      <time>1969-12-31T23:11:11Z</time>
    </trkpt>
    <trkpt lat="43.387424508" lon="12.481620759">
      <ele>443.47</ele>
      <time>1969-12-31T23:11:12Z</time>
    </trkpt>
    <trkpt lat="43.387226108" lon="12.482123338">
      <ele>442.84</ele>
      <time>1969-12-31T23:11:13Z</time>
    </trkpt>
    <trkpt lat="43.387145977" lon="12.482529609">
      <ele>443.07</ele>
      <time>1969-12-31T23:11:14Z</time>
    </trkpt>
    <trkpt lat="43.387088813" lon="12.48301886">
      <ele>442.88</ele>
      <time>1969-12-31T23:11:15Z</time>
    </trkpt>
    <trkpt lat="43.387004826" lon="12.483467124">
      <ele>442.37</ele>
      <time>1969-12-31T23:11:16Z</time>
    </trkpt>
    <trkpt lat="43.386844648" lon="12.483995436">
      <ele>443.48</ele>
      <time>1969-12-31T23:11:17Z</time>
    </trkpt>
    <trkpt lat="43.386688242" lon="12.484419812">
      <ele>444.1</ele>
      <time>1969-12-31T23:11:18Z</time>
    </trkpt>
    <trkpt lat="43.386470815" lon="12.484854665">
      <ele>441.23</ele>
      <time>1969-12-31T23:11:19Z</time>
    </trkpt>
    <trkpt lat="43.386280043" lon="12.485197987">
      <ele>438.6</ele>
      <time>1969-12-31T23:11:20Z</time>
    </trkpt>
    <trkpt lat="43.386093127" lon="12.485540388">
      <ele>436.07</ele>
      <time>1969-12-31T23:11:21Z</time>
    </trkpt>
    <trkpt lat="43.385871928" lon="12.485932326">
      <ele>433.56</ele>
      <time>1969-12-31T23:11:22Z</time>
    </trkpt>
    <trkpt lat="43.385658273" lon="12.486307165">
      <ele>431.83</ele>
      <time>1969-12-31T23:11:23Z</time>
    </trkpt>
    <trkpt lat="43.385452246" lon="12.486652331">
      <ele>431.59</ele>
      <time>1969-12-31T23:11:24Z</time>
    </trkpt>
    <trkpt lat="43.38525393" lon="12.487047203">
      <ele>431.48</ele>
      <time>1969-12-31T23:11:25Z</time>
    </trkpt>
    <trkpt lat="43.385215793" lon="12.487153066">
      <ele>431.59</ele>
      <time>1969-12-31T23:11:26Z</time>
    </trkpt>
    <trkpt lat="43.385078413" lon="12.487635612">
      <ele>431.7</ele>
      <time>1969-12-31T23:11:27Z</time>
    </trkpt>
    <trkpt lat="43.384971628" lon="12.488140119">
      <ele>431.31</ele>
      <time>1969-12-31T23:11:28Z</time>
    </trkpt>
    <trkpt lat="43.384876242" lon="12.488676058">
      <ele>429.74</ele>
      <time>1969-12-31T23:11:29Z</time>
    </trkpt>
    <trkpt lat="43.384811366" lon="12.489179643">
      <ele>427.77</ele>
      <time>1969-12-31T23:11:30Z</time>
    </trkpt>
    <trkpt lat="43.384769456" lon="12.489621202">
      <ele>426.07</ele>
      <time>1969-12-31T23:11:31Z</time>
    </trkpt>
    <trkpt lat="43.384742718" lon="12.490032166">
      <ele>424.46</ele>
      <time>1969-12-31T23:11:32Z</time>
    </trkpt>
    <trkpt lat="43.384723691" lon="12.490167618">
      <ele>423.9</ele>
      <time>1969-12-31T23:11:33Z</time>
    </trkpt>
    <trkpt lat="43.384716064" lon="12.49019335">
      <ele>423.78</ele>
      <time>1969-12-31T23:11:34Z</time>
    </trkpt>
    <trkpt lat="43.384704581" lon="12.490389822">
      <ele>423.11</ele>
      <time>1969-12-31T23:11:35Z</time>
    </trkpt>
    <trkpt lat="43.38467407" lon="12.490580594">
      <ele>422.52</ele>
      <time>1969-12-31T23:11:36Z</time>
    </trkpt>
    <trkpt lat="43.38452152" lon="12.491013519">
      <ele>420.54</ele>
      <time>1969-12-31T23:11:37Z</time>
    </trkpt>
    <trkpt lat="43.384220107" lon="12.491134638">
      <ele>418.42</ele>
      <time>1969-12-31T23:11:38Z</time>
    </trkpt>
    <trkpt lat="43.383914921" lon="12.491342509">
      <ele>416.49</ele>
      <time>1969-12-31T23:11:39Z</time>
    </trkpt>
    <trkpt lat="43.383735633" lon="12.491686838">
      <ele>416.37</ele>
      <time>1969-12-31T23:11:40Z</time>
    </trkpt>
    <trkpt lat="43.383655585" lon="12.491846094">
      <ele>416.59</ele>
      <time>1969-12-31T23:11:41Z</time>
    </trkpt>
    <trkpt lat="43.383525833" lon="12.492081625">
      <ele>417.11</ele>
      <time>1969-12-31T23:11:42Z</time>
    </trkpt>
    <trkpt lat="43.383285524" lon="12.492482197">
      <ele>418.0</ele>
      <time>1969-12-31T23:11:43Z</time>
    </trkpt>
    <trkpt lat="43.383037588" lon="12.492780676">
      <ele>418.46</ele>
      <time>1969-12-31T23:11:44Z</time>
    </trkpt>
    <trkpt lat="43.382759057" lon="12.493104888">
      <ele>417.68</ele>
      <time>1969-12-31T23:11:45Z</time>
    </trkpt>
    <trkpt lat="43.382453956" lon="12.493493054">
      <ele>416.69</ele>
      <time>1969-12-31T23:11:46Z</time>
    </trkpt>
    <trkpt lat="43.382213563" lon="12.49390603">
      <ele>416.64</ele>
      <time>1969-12-31T23:11:47Z</time>
    </trkpt>
    <trkpt lat="43.382019019" lon="12.494301824">
      <ele>416.44</ele>
      <time>1969-12-31T23:11:48Z</time>
    </trkpt>
    <trkpt lat="43.381816847" lon="12.494679429">
      <ele>416.33</ele>
      <time>1969-12-31T23:11:49Z</time>
    </trkpt>
    <trkpt lat="43.381610904" lon="12.495009424">
      <ele>416.82</ele>
      <time>1969-12-31T23:11:50Z</time>
    </trkpt>
    <trkpt lat="43.381381994" lon="12.495356519">
      <ele>417.69</ele>
      <time>1969-12-31T23:11:51Z</time>
    </trkpt>
    <trkpt lat="43.381202705" lon="12.495648377">
      <ele>418.51</ele>
      <time>1969-12-31T23:11:52Z</time>
    </trkpt>
    <trkpt lat="43.381004306" lon="12.495966889">
      <ele>419.59</ele>
      <time>1969-12-31T23:11:53Z</time>
    </trkpt>
    <trkpt lat="43.380752597" lon="12.49640082">
      <ele>420.29</ele>
      <time>1969-12-31T23:11:54Z</time>
    </trkpt>
    <trkpt lat="43.380550342" lon="12.496741293">
      <ele>420.34</ele>
      <time>1969-12-31T23:11:55Z</time>
    </trkpt>
    <trkpt lat="43.380443556" lon="12.496912032">
      <ele>420.43</ele>
      <time>1969-12-31T23:11:56Z</time>
    </trkpt>
    <trkpt lat="43.380424529" lon="12.496957798">
      <ele>420.48</ele>
      <time>1969-12-31T23:11:57Z</time>
    </trkpt>
    <trkpt lat="43.380279522" lon="12.497199029">
      <ele>420.3</ele>
      <time>1969-12-31T23:11:58Z</time>
    </trkpt>
    <trkpt lat="43.380119344" lon="12.497406984">
      <ele>419.78</ele>
      <time>1969-12-31T23:11:59Z</time>
    </trkpt>
    <trkpt lat="43.380001076" lon="12.49763296">
      <ele>419.2</ele>
      <time>1969-12-31T23:12:00Z</time>
    </trkpt>
    <trkpt lat="43.380031586" lon="12.497890452">
      <ele>419.05</ele>
      <time>1969-12-31T23:12:01Z</time>
    </trkpt>
    <trkpt lat="43.37999722" lon="12.49795625">
      <ele>418.95</ele>
      <time>1969-12-31T23:12:02Z</time>
    </trkpt>
    <trkpt lat="43.380313888" lon="12.49820712">
      <ele>420.3</ele>
      <time>1969-12-31T23:12:03Z</time>
    </trkpt>
    <trkpt lat="43.38054657" lon="12.498386409">
      <ele>421.0</ele>
      <time>1969-12-31T23:12:04Z</time>
    </trkpt>
    <trkpt lat="43.380741114" lon="12.498555221">
      <ele>421.29</ele>
      <time>1969-12-31T23:12:05Z</time>
    </trkpt>
    <trkpt lat="43.380966168" lon="12.498764014">
      <ele>422.02</ele>
      <time>1969-12-31T23:12:06Z</time>
    </trkpt>
    <trkpt lat="43.381050071" lon="12.49880123">
      <ele>422.47</ele>
      <time>1969-12-31T23:12:07Z</time>
    </trkpt>
    <trkpt lat="43.381160712" lon="12.498886138">
      <ele>423.09</ele>
      <time>1969-12-31T23:12:08Z</time>
    </trkpt>
    <trkpt lat="43.381362883" lon="12.499062577">
      <ele>424.36</ele>
      <time>1969-12-31T23:12:09Z</time>
    </trkpt>
    <trkpt lat="43.381462125" lon="12.499222755">
      <ele>424.69</ele>
      <time>1969-12-31T23:12:10Z</time>
    </trkpt>
    <trkpt lat="43.381710062" lon="12.499517463">
      <ele>425.38</ele>
      <time>1969-12-31T23:12:11Z</time>
    </trkpt>
    <trkpt lat="43.381885495" lon="12.49978736">
      <ele>425.92</ele>
      <time>1969-12-31T23:12:12Z</time>
    </trkpt>
    <trkpt lat="43.382125888" lon="12.500102017">
      <ele>426.66</ele>
      <time>1969-12-31T23:12:13Z</time>
    </trkpt>
    <trkpt lat="43.382442473" lon="12.500469228">
      <ele>426.0</ele>
      <time>1969-12-31T23:12:14Z</time>
    </trkpt>
    <trkpt lat="43.382667527" lon="12.500712387">
      <ele>425.79</ele>
      <time>1969-12-31T23:12:15Z</time>
    </trkpt>
    <trkpt lat="43.382919319" lon="12.500972729">
      <ele>426.0</ele>
      <time>1969-12-31T23:12:16Z</time>
    </trkpt>
    <trkpt lat="43.383171111" lon="12.501206417">
      <ele>427.72</ele>
      <time>1969-12-31T23:12:17Z</time>
    </trkpt>
    <trkpt lat="43.383449558" lon="12.501449576">
      <ele>430.16</ele>
      <time>1969-12-31T23:12:18Z</time>
    </trkpt>
    <trkpt lat="43.383689867" lon="12.50166893">
      <ele>432.29</ele>
      <time>1969-12-31T23:12:19Z</time>
    </trkpt>
    <trkpt lat="43.383724233" lon="12.50170799">
      <ele>432.61</ele>
      <time>1969-12-31T23:12:20Z</time>
    </trkpt>
  </trkseg>
</trk>
</gpx>
